<?xml version="1.0" encoding="UTF-8" standalone="no" ?>
<gpx xmlns="http://www.topografix.com/GPX/1/1" xmlns:xsi="http://www.w3.org/2001/XMLSchema-instance" xsi:schemaLocation="http://www.topografix.com/GPX/1/1 http://www.topografix.com/GPX/1/1/gpx.xsd" version="1.1" creator="VisuGPX - https://www.visugpx.com">
  <metadata>
    <name>Montmirail - Les Courens</name>
    <desc><![CDATA[faite le dimanche 16 janvier 2022]]></desc>
  </metadata>
  <trk>
    <name><![CDATA[2022-01-16 15:06:12]]></name>
    <extensions>
      <line xmlns="http://www.topografix.com/GPX/gpx_style/0/2">
        <color>0000FF</color>
        <width>4</width>
      </line>
    </extensions>
    <trkseg>
      <trkpt lat="44.13614" lon="5.00662">
        <ele>176.8</ele>
        <time>2022-01-16T09:31:24Z</time>
      </trkpt>
      <trkpt lat="44.13613" lon="5.00663">
        <ele>176.9</ele>
        <time>2022-01-16T09:31:25Z</time>
      </trkpt>
      <trkpt lat="44.13613" lon="5.00662">
        <ele>177</ele>
        <time>2022-01-16T09:31:59Z</time>
      </trkpt>
      <trkpt lat="44.13612" lon="5.0066">
        <ele>177.1</ele>
        <time>2022-01-16T09:32:04Z</time>
      </trkpt>
      <trkpt lat="44.13612" lon="5.00659">
        <ele>177.2</ele>
        <time>2022-01-16T09:32:06Z</time>
      </trkpt>
      <trkpt lat="44.13612" lon="5.00659">
        <ele>177.2</ele>
        <time>2022-01-16T09:32:07Z</time>
      </trkpt>
      <trkpt lat="44.13612" lon="5.00658">
        <ele>177.2</ele>
        <time>2022-01-16T09:32:08Z</time>
      </trkpt>
      <trkpt lat="44.13612" lon="5.00658">
        <ele>177.2</ele>
        <time>2022-01-16T09:32:09Z</time>
      </trkpt>
      <trkpt lat="44.13612" lon="5.00658">
        <ele>177.2</ele>
        <time>2022-01-16T09:32:10Z</time>
      </trkpt>
      <trkpt lat="44.13612" lon="5.00657">
        <ele>177.2</ele>
        <time>2022-01-16T09:32:11Z</time>
      </trkpt>
      <trkpt lat="44.13612" lon="5.00658">
        <ele>177.2</ele>
        <time>2022-01-16T09:32:12Z</time>
      </trkpt>
      <trkpt lat="44.13611" lon="5.00651">
        <ele>177.6</ele>
        <time>2022-01-16T09:32:27Z</time>
      </trkpt>
      <trkpt lat="44.13613" lon="5.00637">
        <ele>177.7</ele>
        <time>2022-01-16T09:32:43Z</time>
      </trkpt>
      <trkpt lat="44.13613" lon="5.00627">
        <ele>177.7</ele>
        <time>2022-01-16T09:32:56Z</time>
      </trkpt>
      <trkpt lat="44.13614" lon="5.00616">
        <ele>177.6</ele>
        <time>2022-01-16T09:33:10Z</time>
      </trkpt>
      <trkpt lat="44.13618" lon="5.00618">
        <ele>177</ele>
        <time>2022-01-16T09:33:26Z</time>
      </trkpt>
      <trkpt lat="44.13618" lon="5.00611">
        <ele>177</ele>
        <time>2022-01-16T09:33:39Z</time>
      </trkpt>
      <trkpt lat="44.13618" lon="5.00609">
        <ele>176.7</ele>
        <time>2022-01-16T09:33:40Z</time>
      </trkpt>
      <trkpt lat="44.13618" lon="5.00608">
        <ele>176.5</ele>
        <time>2022-01-16T09:33:41Z</time>
      </trkpt>
      <trkpt lat="44.13617" lon="5.00594">
        <ele>174.3</ele>
        <time>2022-01-16T09:33:52Z</time>
      </trkpt>
      <trkpt lat="44.13616" lon="5.00588">
        <ele>173.1</ele>
        <time>2022-01-16T09:33:56Z</time>
      </trkpt>
      <trkpt lat="44.13616" lon="5.00587">
        <ele>172.9</ele>
        <time>2022-01-16T09:33:57Z</time>
      </trkpt>
      <trkpt lat="44.1361" lon="5.00572">
        <ele>169.4</ele>
        <time>2022-01-16T09:34:11Z</time>
      </trkpt>
      <trkpt lat="44.13604" lon="5.00552">
        <ele>165.3</ele>
        <time>2022-01-16T09:34:25Z</time>
      </trkpt>
      <trkpt lat="44.13603" lon="5.00532">
        <ele>161.6</ele>
        <time>2022-01-16T09:34:38Z</time>
      </trkpt>
      <trkpt lat="44.13603" lon="5.00528">
        <ele>160.9</ele>
        <time>2022-01-16T09:34:51Z</time>
      </trkpt>
      <trkpt lat="44.136" lon="5.00524">
        <ele>160.1</ele>
        <time>2022-01-16T09:35:13Z</time>
      </trkpt>
      <trkpt lat="44.13597" lon="5.0052">
        <ele>159.4</ele>
        <time>2022-01-16T09:35:28Z</time>
      </trkpt>
      <trkpt lat="44.13596" lon="5.00517">
        <ele>159.1</ele>
        <time>2022-01-16T09:35:42Z</time>
      </trkpt>
      <trkpt lat="44.13601" lon="5.00522">
        <ele>160.1</ele>
        <time>2022-01-16T09:36:02Z</time>
      </trkpt>
      <trkpt lat="44.13601" lon="5.00529">
        <ele>160.8</ele>
        <time>2022-01-16T09:36:17Z</time>
      </trkpt>
      <trkpt lat="44.13596" lon="5.00526">
        <ele>159.7</ele>
        <time>2022-01-16T09:36:33Z</time>
      </trkpt>
      <trkpt lat="44.13595" lon="5.00518">
        <ele>159</ele>
        <time>2022-01-16T09:36:46Z</time>
      </trkpt>
      <trkpt lat="44.13589" lon="5.00498">
        <ele>157.3</ele>
        <time>2022-01-16T09:37:05Z</time>
      </trkpt>
      <trkpt lat="44.13585" lon="5.00485">
        <ele>156</ele>
        <time>2022-01-16T09:37:18Z</time>
      </trkpt>
      <trkpt lat="44.13578" lon="5.00461">
        <ele>152.6</ele>
        <time>2022-01-16T09:37:39Z</time>
      </trkpt>
      <trkpt lat="44.13574" lon="5.00439">
        <ele>148.4</ele>
        <time>2022-01-16T09:37:54Z</time>
      </trkpt>
      <trkpt lat="44.13573" lon="5.00407">
        <ele>145.7</ele>
        <time>2022-01-16T09:38:13Z</time>
      </trkpt>
      <trkpt lat="44.13576" lon="5.00388">
        <ele>149.1</ele>
        <time>2022-01-16T09:38:25Z</time>
      </trkpt>
      <trkpt lat="44.1358" lon="5.00379">
        <ele>151.9</ele>
        <time>2022-01-16T09:38:33Z</time>
      </trkpt>
      <trkpt lat="44.13581" lon="5.00378">
        <ele>152.4</ele>
        <time>2022-01-16T09:38:34Z</time>
      </trkpt>
      <trkpt lat="44.13589" lon="5.00374">
        <ele>154.6</ele>
        <time>2022-01-16T09:38:42Z</time>
      </trkpt>
      <trkpt lat="44.1359" lon="5.00373">
        <ele>155</ele>
        <time>2022-01-16T09:38:43Z</time>
      </trkpt>
      <trkpt lat="44.13591" lon="5.00373">
        <ele>155.1</ele>
        <time>2022-01-16T09:38:44Z</time>
      </trkpt>
      <trkpt lat="44.13592" lon="5.00372">
        <ele>155.5</ele>
        <time>2022-01-16T09:38:45Z</time>
      </trkpt>
      <trkpt lat="44.13594" lon="5.00372">
        <ele>155.8</ele>
        <time>2022-01-16T09:38:46Z</time>
      </trkpt>
      <trkpt lat="44.13609" lon="5.00373">
        <ele>158.1</ele>
        <time>2022-01-16T09:39:00Z</time>
      </trkpt>
      <trkpt lat="44.13615" lon="5.00375">
        <ele>158.6</ele>
        <time>2022-01-16T09:39:07Z</time>
      </trkpt>
      <trkpt lat="44.13618" lon="5.00375">
        <ele>159</ele>
        <time>2022-01-16T09:39:09Z</time>
      </trkpt>
      <trkpt lat="44.13641" lon="5.00385">
        <ele>158.9</ele>
        <time>2022-01-16T09:39:30Z</time>
      </trkpt>
      <trkpt lat="44.13656" lon="5.00392">
        <ele>159.9</ele>
        <time>2022-01-16T09:39:45Z</time>
      </trkpt>
      <trkpt lat="44.13668" lon="5.00395">
        <ele>161.8</ele>
        <time>2022-01-16T09:39:55Z</time>
      </trkpt>
      <trkpt lat="44.13684" lon="5.00389">
        <ele>161.1</ele>
        <time>2022-01-16T09:40:09Z</time>
      </trkpt>
      <trkpt lat="44.13684" lon="5.00387">
        <ele>161.6</ele>
        <time>2022-01-16T09:40:10Z</time>
      </trkpt>
      <trkpt lat="44.13684" lon="5.00386">
        <ele>161.8</ele>
        <time>2022-01-16T09:40:11Z</time>
      </trkpt>
      <trkpt lat="44.13696" lon="5.00372">
        <ele>163.1</ele>
        <time>2022-01-16T09:40:24Z</time>
      </trkpt>
      <trkpt lat="44.13697" lon="5.00371">
        <ele>163.3</ele>
        <time>2022-01-16T09:40:25Z</time>
      </trkpt>
      <trkpt lat="44.13713" lon="5.00372">
        <ele>163.7</ele>
        <time>2022-01-16T09:40:36Z</time>
      </trkpt>
      <trkpt lat="44.13713" lon="5.00371">
        <ele>163.7</ele>
        <time>2022-01-16T09:40:37Z</time>
      </trkpt>
      <trkpt lat="44.13715" lon="5.0037">
        <ele>163.8</ele>
        <time>2022-01-16T09:40:38Z</time>
      </trkpt>
      <trkpt lat="44.13716" lon="5.00371">
        <ele>163.8</ele>
        <time>2022-01-16T09:40:40Z</time>
      </trkpt>
      <trkpt lat="44.13718" lon="5.00373">
        <ele>163.8</ele>
        <time>2022-01-16T09:40:47Z</time>
      </trkpt>
      <trkpt lat="44.13713" lon="5.00373">
        <ele>163.6</ele>
        <time>2022-01-16T09:41:03Z</time>
      </trkpt>
      <trkpt lat="44.13713" lon="5.00366">
        <ele>164</ele>
        <time>2022-01-16T09:41:20Z</time>
      </trkpt>
      <trkpt lat="44.13714" lon="5.00363">
        <ele>164.2</ele>
        <time>2022-01-16T09:41:22Z</time>
      </trkpt>
      <trkpt lat="44.13718" lon="5.00356">
        <ele>164.1</ele>
        <time>2022-01-16T09:41:30Z</time>
      </trkpt>
      <trkpt lat="44.13718" lon="5.00355">
        <ele>164.1</ele>
        <time>2022-01-16T09:41:31Z</time>
      </trkpt>
      <trkpt lat="44.13718" lon="5.00353">
        <ele>164</ele>
        <time>2022-01-16T09:41:32Z</time>
      </trkpt>
      <trkpt lat="44.1372" lon="5.00329">
        <ele>163.4</ele>
        <time>2022-01-16T09:41:48Z</time>
      </trkpt>
      <trkpt lat="44.13724" lon="5.00317">
        <ele>163.3</ele>
        <time>2022-01-16T09:42:00Z</time>
      </trkpt>
      <trkpt lat="44.13723" lon="5.00313">
        <ele>163.1</ele>
        <time>2022-01-16T09:42:23Z</time>
      </trkpt>
      <trkpt lat="44.13723" lon="5.00311">
        <ele>163.1</ele>
        <time>2022-01-16T09:42:28Z</time>
      </trkpt>
      <trkpt lat="44.13723" lon="5.00309">
        <ele>163.1</ele>
        <time>2022-01-16T09:42:29Z</time>
      </trkpt>
      <trkpt lat="44.13724" lon="5.00307">
        <ele>163.3</ele>
        <time>2022-01-16T09:42:30Z</time>
      </trkpt>
      <trkpt lat="44.13725" lon="5.00305">
        <ele>163.4</ele>
        <time>2022-01-16T09:42:31Z</time>
      </trkpt>
      <trkpt lat="44.13728" lon="5.00305">
        <ele>163.8</ele>
        <time>2022-01-16T09:42:38Z</time>
      </trkpt>
      <trkpt lat="44.13727" lon="5.00293">
        <ele>163.2</ele>
        <time>2022-01-16T09:42:56Z</time>
      </trkpt>
      <trkpt lat="44.13728" lon="5.00286">
        <ele>163</ele>
        <time>2022-01-16T09:43:09Z</time>
      </trkpt>
      <trkpt lat="44.13728" lon="5.0028">
        <ele>162.7</ele>
        <time>2022-01-16T09:43:13Z</time>
      </trkpt>
      <trkpt lat="44.13731" lon="5.00265">
        <ele>162.8</ele>
        <time>2022-01-16T09:43:26Z</time>
      </trkpt>
      <trkpt lat="44.13733" lon="5.00245">
        <ele>162.4</ele>
        <time>2022-01-16T09:43:42Z</time>
      </trkpt>
      <trkpt lat="44.13737" lon="5.00223">
        <ele>161.5</ele>
        <time>2022-01-16T09:43:58Z</time>
      </trkpt>
      <trkpt lat="44.13738" lon="5.00219">
        <ele>161.2</ele>
        <time>2022-01-16T09:44:01Z</time>
      </trkpt>
      <trkpt lat="44.13743" lon="5.00184">
        <ele>158.3</ele>
        <time>2022-01-16T09:44:26Z</time>
      </trkpt>
      <trkpt lat="44.13746" lon="5.00165">
        <ele>155.8</ele>
        <time>2022-01-16T09:44:39Z</time>
      </trkpt>
      <trkpt lat="44.13753" lon="5.00127">
        <ele>152.8</ele>
        <time>2022-01-16T09:45:03Z</time>
      </trkpt>
      <trkpt lat="44.13759" lon="5.00093">
        <ele>150.9</ele>
        <time>2022-01-16T09:45:27Z</time>
      </trkpt>
      <trkpt lat="44.13763" lon="5.00074">
        <ele>149.6</ele>
        <time>2022-01-16T09:45:42Z</time>
      </trkpt>
      <trkpt lat="44.13765" lon="5.00063">
        <ele>148.8</ele>
        <time>2022-01-16T09:45:52Z</time>
      </trkpt>
      <trkpt lat="44.13765" lon="5.00061">
        <ele>148.6</ele>
        <time>2022-01-16T09:45:53Z</time>
      </trkpt>
      <trkpt lat="44.13765" lon="5.00059">
        <ele>148.4</ele>
        <time>2022-01-16T09:45:54Z</time>
      </trkpt>
      <trkpt lat="44.13765" lon="5.00056">
        <ele>148.1</ele>
        <time>2022-01-16T09:45:56Z</time>
      </trkpt>
      <trkpt lat="44.13766" lon="5.00055">
        <ele>148.1</ele>
        <time>2022-01-16T09:45:57Z</time>
      </trkpt>
      <trkpt lat="44.13766" lon="5.00053">
        <ele>147.9</ele>
        <time>2022-01-16T09:45:58Z</time>
      </trkpt>
      <trkpt lat="44.13769" lon="5.00023">
        <ele>145.8</ele>
        <time>2022-01-16T09:46:18Z</time>
      </trkpt>
      <trkpt lat="44.13773" lon="5.00001">
        <ele>144.7</ele>
        <time>2022-01-16T09:46:34Z</time>
      </trkpt>
      <trkpt lat="44.13774" lon="4.99974">
        <ele>143.7</ele>
        <time>2022-01-16T09:46:51Z</time>
      </trkpt>
      <trkpt lat="44.13775" lon="4.99966">
        <ele>143.3</ele>
        <time>2022-01-16T09:46:57Z</time>
      </trkpt>
      <trkpt lat="44.13776" lon="4.99963">
        <ele>143.2</ele>
        <time>2022-01-16T09:46:59Z</time>
      </trkpt>
      <trkpt lat="44.13776" lon="4.99961">
        <ele>143</ele>
        <time>2022-01-16T09:47:00Z</time>
      </trkpt>
      <trkpt lat="44.13779" lon="4.99936">
        <ele>141.4</ele>
        <time>2022-01-16T09:47:17Z</time>
      </trkpt>
      <trkpt lat="44.13781" lon="4.99926">
        <ele>140.9</ele>
        <time>2022-01-16T09:47:25Z</time>
      </trkpt>
      <trkpt lat="44.13784" lon="4.99921">
        <ele>140.7</ele>
        <time>2022-01-16T09:47:29Z</time>
      </trkpt>
      <trkpt lat="44.13788" lon="4.99909">
        <ele>140.4</ele>
        <time>2022-01-16T09:47:39Z</time>
      </trkpt>
      <trkpt lat="44.13789" lon="4.99907">
        <ele>140.3</ele>
        <time>2022-01-16T09:47:40Z</time>
      </trkpt>
      <trkpt lat="44.13792" lon="4.99896">
        <ele>139.9</ele>
        <time>2022-01-16T09:47:48Z</time>
      </trkpt>
      <trkpt lat="44.13794" lon="4.99879">
        <ele>139.1</ele>
        <time>2022-01-16T09:47:59Z</time>
      </trkpt>
      <trkpt lat="44.13798" lon="4.99862">
        <ele>138.5</ele>
        <time>2022-01-16T09:48:12Z</time>
      </trkpt>
      <trkpt lat="44.138" lon="4.99856">
        <ele>138.2</ele>
        <time>2022-01-16T09:48:17Z</time>
      </trkpt>
      <trkpt lat="44.13801" lon="4.99854">
        <ele>138.2</ele>
        <time>2022-01-16T09:48:19Z</time>
      </trkpt>
      <trkpt lat="44.13802" lon="4.99848">
        <ele>137.8</ele>
        <time>2022-01-16T09:48:24Z</time>
      </trkpt>
      <trkpt lat="44.13803" lon="4.99844">
        <ele>137.6</ele>
        <time>2022-01-16T09:48:27Z</time>
      </trkpt>
      <trkpt lat="44.13801" lon="4.99829">
        <ele>136.4</ele>
        <time>2022-01-16T09:48:42Z</time>
      </trkpt>
      <trkpt lat="44.138" lon="4.99829">
        <ele>136.3</ele>
        <time>2022-01-16T09:48:43Z</time>
      </trkpt>
      <trkpt lat="44.13785" lon="4.99838">
        <ele>135.9</ele>
        <time>2022-01-16T09:48:59Z</time>
      </trkpt>
      <trkpt lat="44.13778" lon="4.99844">
        <ele>135.8</ele>
        <time>2022-01-16T09:49:07Z</time>
      </trkpt>
      <trkpt lat="44.13777" lon="4.99845">
        <ele>135.8</ele>
        <time>2022-01-16T09:49:08Z</time>
      </trkpt>
      <trkpt lat="44.13764" lon="4.99859">
        <ele>135.9</ele>
        <time>2022-01-16T09:49:23Z</time>
      </trkpt>
      <trkpt lat="44.13748" lon="4.99871">
        <ele>135.9</ele>
        <time>2022-01-16T09:49:42Z</time>
      </trkpt>
      <trkpt lat="44.13735" lon="4.99883">
        <ele>136</ele>
        <time>2022-01-16T09:49:57Z</time>
      </trkpt>
      <trkpt lat="44.1372" lon="4.99897">
        <ele>135.8</ele>
        <time>2022-01-16T09:50:12Z</time>
      </trkpt>
      <trkpt lat="44.13697" lon="4.99916">
        <ele>136.2</ele>
        <time>2022-01-16T09:50:33Z</time>
      </trkpt>
      <trkpt lat="44.13681" lon="4.99931">
        <ele>136.3</ele>
        <time>2022-01-16T09:50:51Z</time>
      </trkpt>
      <trkpt lat="44.13662" lon="4.99948">
        <ele>135.9</ele>
        <time>2022-01-16T09:51:11Z</time>
      </trkpt>
      <trkpt lat="44.1365" lon="4.9996">
        <ele>135.9</ele>
        <time>2022-01-16T09:51:27Z</time>
      </trkpt>
      <trkpt lat="44.1363" lon="4.9997">
        <ele>135.5</ele>
        <time>2022-01-16T09:51:42Z</time>
      </trkpt>
      <trkpt lat="44.13625" lon="4.99964">
        <ele>135.1</ele>
        <time>2022-01-16T09:51:47Z</time>
      </trkpt>
      <trkpt lat="44.13623" lon="4.9996">
        <ele>134.8</ele>
        <time>2022-01-16T09:51:50Z</time>
      </trkpt>
      <trkpt lat="44.13623" lon="4.99959">
        <ele>134.7</ele>
        <time>2022-01-16T09:51:51Z</time>
      </trkpt>
      <trkpt lat="44.13622" lon="4.99957">
        <ele>134.6</ele>
        <time>2022-01-16T09:51:52Z</time>
      </trkpt>
      <trkpt lat="44.13621" lon="4.99956">
        <ele>134.6</ele>
        <time>2022-01-16T09:51:53Z</time>
      </trkpt>
      <trkpt lat="44.13621" lon="4.99954">
        <ele>134.5</ele>
        <time>2022-01-16T09:51:54Z</time>
      </trkpt>
      <trkpt lat="44.13612" lon="4.99948">
        <ele>134.1</ele>
        <time>2022-01-16T09:52:06Z</time>
      </trkpt>
      <trkpt lat="44.13601" lon="4.99947">
        <ele>133.8</ele>
        <time>2022-01-16T09:52:20Z</time>
      </trkpt>
      <trkpt lat="44.13587" lon="4.99953">
        <ele>133.7</ele>
        <time>2022-01-16T09:52:36Z</time>
      </trkpt>
      <trkpt lat="44.13566" lon="4.99972">
        <ele>134.4</ele>
        <time>2022-01-16T09:52:57Z</time>
      </trkpt>
      <trkpt lat="44.13562" lon="4.99974">
        <ele>134.4</ele>
        <time>2022-01-16T09:52:59Z</time>
      </trkpt>
      <trkpt lat="44.13539" lon="4.99991">
        <ele>135.8</ele>
        <time>2022-01-16T09:53:16Z</time>
      </trkpt>
      <trkpt lat="44.13524" lon="5.00002">
        <ele>136.1</ele>
        <time>2022-01-16T09:53:31Z</time>
      </trkpt>
      <trkpt lat="44.13507" lon="5.00016">
        <ele>137.2</ele>
        <time>2022-01-16T09:53:48Z</time>
      </trkpt>
      <trkpt lat="44.13492" lon="5.00024">
        <ele>137.8</ele>
        <time>2022-01-16T09:54:01Z</time>
      </trkpt>
      <trkpt lat="44.1348" lon="5.00031">
        <ele>138.1</ele>
        <time>2022-01-16T09:54:13Z</time>
      </trkpt>
      <trkpt lat="44.13465" lon="5.0004">
        <ele>138.7</ele>
        <time>2022-01-16T09:54:27Z</time>
      </trkpt>
      <trkpt lat="44.13453" lon="5.0005">
        <ele>139.1</ele>
        <time>2022-01-16T09:54:41Z</time>
      </trkpt>
      <trkpt lat="44.13451" lon="5.00054">
        <ele>139</ele>
        <time>2022-01-16T09:54:50Z</time>
      </trkpt>
      <trkpt lat="44.13452" lon="5.00056">
        <ele>139</ele>
        <time>2022-01-16T09:55:11Z</time>
      </trkpt>
      <trkpt lat="44.13449" lon="5.00054">
        <ele>139</ele>
        <time>2022-01-16T09:55:28Z</time>
      </trkpt>
      <trkpt lat="44.13442" lon="5.00053">
        <ele>139.5</ele>
        <time>2022-01-16T09:55:38Z</time>
      </trkpt>
      <trkpt lat="44.13439" lon="5.00053">
        <ele>139.9</ele>
        <time>2022-01-16T09:55:40Z</time>
      </trkpt>
      <trkpt lat="44.13438" lon="5.00053">
        <ele>140.1</ele>
        <time>2022-01-16T09:55:41Z</time>
      </trkpt>
      <trkpt lat="44.13426" lon="5.00053">
        <ele>141.9</ele>
        <time>2022-01-16T09:55:54Z</time>
      </trkpt>
      <trkpt lat="44.1341" lon="5.00063">
        <ele>143</ele>
        <time>2022-01-16T09:56:11Z</time>
      </trkpt>
      <trkpt lat="44.13396" lon="5.00078">
        <ele>142.3</ele>
        <time>2022-01-16T09:56:29Z</time>
      </trkpt>
      <trkpt lat="44.13383" lon="5.0009">
        <ele>141.7</ele>
        <time>2022-01-16T09:56:40Z</time>
      </trkpt>
      <trkpt lat="44.13369" lon="5.00108">
        <ele>140.1</ele>
        <time>2022-01-16T09:56:58Z</time>
      </trkpt>
      <trkpt lat="44.1335" lon="5.00123">
        <ele>140</ele>
        <time>2022-01-16T09:57:16Z</time>
      </trkpt>
      <trkpt lat="44.13343" lon="5.00128">
        <ele>139.9</ele>
        <time>2022-01-16T09:57:24Z</time>
      </trkpt>
      <trkpt lat="44.13342" lon="5.0013">
        <ele>139.8</ele>
        <time>2022-01-16T09:57:25Z</time>
      </trkpt>
      <trkpt lat="44.13328" lon="5.00139">
        <ele>139</ele>
        <time>2022-01-16T09:57:38Z</time>
      </trkpt>
      <trkpt lat="44.13319" lon="5.00143">
        <ele>138.6</ele>
        <time>2022-01-16T09:57:47Z</time>
      </trkpt>
      <trkpt lat="44.13318" lon="5.00143">
        <ele>138.6</ele>
        <time>2022-01-16T09:57:48Z</time>
      </trkpt>
      <trkpt lat="44.13305" lon="5.00148">
        <ele>138</ele>
        <time>2022-01-16T09:58:00Z</time>
      </trkpt>
      <trkpt lat="44.13302" lon="5.00149">
        <ele>138</ele>
        <time>2022-01-16T09:58:03Z</time>
      </trkpt>
      <trkpt lat="44.13286" lon="5.00157">
        <ele>137.7</ele>
        <time>2022-01-16T09:58:15Z</time>
      </trkpt>
      <trkpt lat="44.13272" lon="5.00162">
        <ele>137.3</ele>
        <time>2022-01-16T09:58:30Z</time>
      </trkpt>
      <trkpt lat="44.13256" lon="5.00178">
        <ele>135</ele>
        <time>2022-01-16T09:58:46Z</time>
      </trkpt>
      <trkpt lat="44.1324" lon="5.00184">
        <ele>133</ele>
        <time>2022-01-16T09:59:03Z</time>
      </trkpt>
      <trkpt lat="44.13226" lon="5.00192">
        <ele>131.3</ele>
        <time>2022-01-16T09:59:17Z</time>
      </trkpt>
      <trkpt lat="44.13205" lon="5.00203">
        <ele>128.6</ele>
        <time>2022-01-16T09:59:38Z</time>
      </trkpt>
      <trkpt lat="44.13194" lon="5.00209">
        <ele>127.5</ele>
        <time>2022-01-16T09:59:52Z</time>
      </trkpt>
      <trkpt lat="44.1318" lon="5.00217">
        <ele>125.6</ele>
        <time>2022-01-16T10:00:10Z</time>
      </trkpt>
      <trkpt lat="44.13176" lon="5.0022">
        <ele>125.2</ele>
        <time>2022-01-16T10:00:31Z</time>
      </trkpt>
      <trkpt lat="44.13166" lon="5.00231">
        <ele>125.2</ele>
        <time>2022-01-16T10:00:44Z</time>
      </trkpt>
      <trkpt lat="44.13159" lon="5.00239">
        <ele>125.3</ele>
        <time>2022-01-16T10:00:58Z</time>
      </trkpt>
      <trkpt lat="44.13157" lon="5.00243">
        <ele>125.4</ele>
        <time>2022-01-16T10:01:01Z</time>
      </trkpt>
      <trkpt lat="44.13145" lon="5.00254">
        <ele>124.5</ele>
        <time>2022-01-16T10:01:17Z</time>
      </trkpt>
      <trkpt lat="44.13134" lon="5.00282">
        <ele>125.3</ele>
        <time>2022-01-16T10:01:37Z</time>
      </trkpt>
      <trkpt lat="44.13131" lon="5.00307">
        <ele>126.5</ele>
        <time>2022-01-16T10:01:56Z</time>
      </trkpt>
      <trkpt lat="44.13144" lon="5.00332">
        <ele>125.9</ele>
        <time>2022-01-16T10:02:15Z</time>
      </trkpt>
      <trkpt lat="44.13145" lon="5.00352">
        <ele>125.3</ele>
        <time>2022-01-16T10:02:30Z</time>
      </trkpt>
      <trkpt lat="44.13144" lon="5.00354">
        <ele>125.2</ele>
        <time>2022-01-16T10:02:31Z</time>
      </trkpt>
      <trkpt lat="44.13144" lon="5.00357">
        <ele>125.1</ele>
        <time>2022-01-16T10:02:32Z</time>
      </trkpt>
      <trkpt lat="44.13143" lon="5.00358">
        <ele>125.1</ele>
        <time>2022-01-16T10:02:33Z</time>
      </trkpt>
      <trkpt lat="44.13143" lon="5.00359">
        <ele>125</ele>
        <time>2022-01-16T10:02:34Z</time>
      </trkpt>
      <trkpt lat="44.13142" lon="5.00361">
        <ele>125</ele>
        <time>2022-01-16T10:02:35Z</time>
      </trkpt>
      <trkpt lat="44.13134" lon="5.00372">
        <ele>126.5</ele>
        <time>2022-01-16T10:02:45Z</time>
      </trkpt>
      <trkpt lat="44.13125" lon="5.00381">
        <ele>126.6</ele>
        <time>2022-01-16T10:02:56Z</time>
      </trkpt>
      <trkpt lat="44.13112" lon="5.00397">
        <ele>126.9</ele>
        <time>2022-01-16T10:03:11Z</time>
      </trkpt>
      <trkpt lat="44.13105" lon="5.00405">
        <ele>127.7</ele>
        <time>2022-01-16T10:03:22Z</time>
      </trkpt>
      <trkpt lat="44.13093" lon="5.00425">
        <ele>127.7</ele>
        <time>2022-01-16T10:03:40Z</time>
      </trkpt>
      <trkpt lat="44.13082" lon="5.00447">
        <ele>127.2</ele>
        <time>2022-01-16T10:04:00Z</time>
      </trkpt>
      <trkpt lat="44.13078" lon="5.00457">
        <ele>127.6</ele>
        <time>2022-01-16T10:04:06Z</time>
      </trkpt>
      <trkpt lat="44.13078" lon="5.00459">
        <ele>127.8</ele>
        <time>2022-01-16T10:04:07Z</time>
      </trkpt>
      <trkpt lat="44.13069" lon="5.00479">
        <ele>127.5</ele>
        <time>2022-01-16T10:04:19Z</time>
      </trkpt>
      <trkpt lat="44.13066" lon="5.00484">
        <ele>127.4</ele>
        <time>2022-01-16T10:04:35Z</time>
      </trkpt>
      <trkpt lat="44.13068" lon="5.00484">
        <ele>127.8</ele>
        <time>2022-01-16T10:04:48Z</time>
      </trkpt>
      <trkpt lat="44.13069" lon="5.00481">
        <ele>127.7</ele>
        <time>2022-01-16T10:05:05Z</time>
      </trkpt>
      <trkpt lat="44.13066" lon="5.0048">
        <ele>127</ele>
        <time>2022-01-16T10:05:40Z</time>
      </trkpt>
      <trkpt lat="44.13063" lon="5.00495">
        <ele>127.8</ele>
        <time>2022-01-16T10:05:57Z</time>
      </trkpt>
      <trkpt lat="44.13055" lon="5.00516">
        <ele>128.2</ele>
        <time>2022-01-16T10:06:11Z</time>
      </trkpt>
      <trkpt lat="44.13053" lon="5.00529">
        <ele>128.5</ele>
        <time>2022-01-16T10:06:21Z</time>
      </trkpt>
      <trkpt lat="44.13044" lon="5.00553">
        <ele>127.9</ele>
        <time>2022-01-16T10:06:36Z</time>
      </trkpt>
      <trkpt lat="44.13036" lon="5.00562">
        <ele>128.6</ele>
        <time>2022-01-16T10:06:47Z</time>
      </trkpt>
      <trkpt lat="44.13035" lon="5.00563">
        <ele>128.7</ele>
        <time>2022-01-16T10:06:48Z</time>
      </trkpt>
      <trkpt lat="44.13033" lon="5.00564">
        <ele>128.9</ele>
        <time>2022-01-16T10:06:49Z</time>
      </trkpt>
      <trkpt lat="44.13033" lon="5.00566">
        <ele>129.1</ele>
        <time>2022-01-16T10:06:50Z</time>
      </trkpt>
      <trkpt lat="44.13027" lon="5.00571">
        <ele>129.6</ele>
        <time>2022-01-16T10:06:59Z</time>
      </trkpt>
      <trkpt lat="44.13026" lon="5.00572">
        <ele>129.6</ele>
        <time>2022-01-16T10:07:00Z</time>
      </trkpt>
      <trkpt lat="44.13025" lon="5.00573">
        <ele>129.7</ele>
        <time>2022-01-16T10:07:01Z</time>
      </trkpt>
      <trkpt lat="44.13024" lon="5.00575">
        <ele>129.8</ele>
        <time>2022-01-16T10:07:02Z</time>
      </trkpt>
      <trkpt lat="44.13021" lon="5.00577">
        <ele>129.7</ele>
        <time>2022-01-16T10:07:03Z</time>
      </trkpt>
      <trkpt lat="44.1302" lon="5.00578">
        <ele>129.7</ele>
        <time>2022-01-16T10:07:04Z</time>
      </trkpt>
      <trkpt lat="44.13011" lon="5.00588">
        <ele>129.9</ele>
        <time>2022-01-16T10:07:15Z</time>
      </trkpt>
      <trkpt lat="44.13003" lon="5.00599">
        <ele>129.8</ele>
        <time>2022-01-16T10:07:28Z</time>
      </trkpt>
      <trkpt lat="44.13" lon="5.00611">
        <ele>130</ele>
        <time>2022-01-16T10:07:39Z</time>
      </trkpt>
      <trkpt lat="44.12992" lon="5.00635">
        <ele>132.1</ele>
        <time>2022-01-16T10:07:58Z</time>
      </trkpt>
      <trkpt lat="44.1298" lon="5.00657">
        <ele>132.3</ele>
        <time>2022-01-16T10:08:14Z</time>
      </trkpt>
      <trkpt lat="44.12972" lon="5.00661">
        <ele>130.6</ele>
        <time>2022-01-16T10:08:24Z</time>
      </trkpt>
      <trkpt lat="44.12967" lon="5.00663">
        <ele>130.4</ele>
        <time>2022-01-16T10:08:33Z</time>
      </trkpt>
      <trkpt lat="44.12952" lon="5.00682">
        <ele>131.5</ele>
        <time>2022-01-16T10:08:53Z</time>
      </trkpt>
      <trkpt lat="44.12942" lon="5.00717">
        <ele>131.7</ele>
        <time>2022-01-16T10:09:14Z</time>
      </trkpt>
      <trkpt lat="44.12929" lon="5.00742">
        <ele>132.1</ele>
        <time>2022-01-16T10:09:31Z</time>
      </trkpt>
      <trkpt lat="44.12927" lon="5.0076">
        <ele>133.4</ele>
        <time>2022-01-16T10:09:45Z</time>
      </trkpt>
      <trkpt lat="44.12928" lon="5.00776">
        <ele>135.6</ele>
        <time>2022-01-16T10:09:55Z</time>
      </trkpt>
      <trkpt lat="44.12925" lon="5.00791">
        <ele>136</ele>
        <time>2022-01-16T10:10:04Z</time>
      </trkpt>
      <trkpt lat="44.12926" lon="5.00792">
        <ele>136.4</ele>
        <time>2022-01-16T10:10:05Z</time>
      </trkpt>
      <trkpt lat="44.12926" lon="5.00793">
        <ele>136.5</ele>
        <time>2022-01-16T10:10:06Z</time>
      </trkpt>
      <trkpt lat="44.12925" lon="5.00795">
        <ele>136.3</ele>
        <time>2022-01-16T10:10:07Z</time>
      </trkpt>
      <trkpt lat="44.12918" lon="5.00805">
        <ele>134.5</ele>
        <time>2022-01-16T10:10:15Z</time>
      </trkpt>
      <trkpt lat="44.12912" lon="5.00814">
        <ele>135.3</ele>
        <time>2022-01-16T10:10:22Z</time>
      </trkpt>
      <trkpt lat="44.12911" lon="5.00815">
        <ele>135.6</ele>
        <time>2022-01-16T10:10:23Z</time>
      </trkpt>
      <trkpt lat="44.12909" lon="5.00825">
        <ele>135.6</ele>
        <time>2022-01-16T10:10:32Z</time>
      </trkpt>
      <trkpt lat="44.12903" lon="5.00832">
        <ele>136.6</ele>
        <time>2022-01-16T10:10:43Z</time>
      </trkpt>
      <trkpt lat="44.12903" lon="5.00833">
        <ele>136.5</ele>
        <time>2022-01-16T10:10:44Z</time>
      </trkpt>
      <trkpt lat="44.12901" lon="5.00838">
        <ele>137.2</ele>
        <time>2022-01-16T10:10:49Z</time>
      </trkpt>
      <trkpt lat="44.12898" lon="5.00845">
        <ele>138.1</ele>
        <time>2022-01-16T10:10:55Z</time>
      </trkpt>
      <trkpt lat="44.1291" lon="5.00841">
        <ele>135.3</ele>
        <time>2022-01-16T10:11:08Z</time>
      </trkpt>
      <trkpt lat="44.12913" lon="5.00838">
        <ele>134.4</ele>
        <time>2022-01-16T10:11:28Z</time>
      </trkpt>
      <trkpt lat="44.12909" lon="5.00835">
        <ele>135.1</ele>
        <time>2022-01-16T10:11:51Z</time>
      </trkpt>
      <trkpt lat="44.12906" lon="5.00844">
        <ele>136.4</ele>
        <time>2022-01-16T10:12:12Z</time>
      </trkpt>
      <trkpt lat="44.129" lon="5.00849">
        <ele>137.9</ele>
        <time>2022-01-16T10:12:15Z</time>
      </trkpt>
      <trkpt lat="44.12892" lon="5.00863">
        <ele>139.4</ele>
        <time>2022-01-16T10:12:31Z</time>
      </trkpt>
      <trkpt lat="44.12881" lon="5.00873">
        <ele>140.7</ele>
        <time>2022-01-16T10:12:46Z</time>
      </trkpt>
      <trkpt lat="44.12866" lon="5.00891">
        <ele>143.3</ele>
        <time>2022-01-16T10:13:04Z</time>
      </trkpt>
      <trkpt lat="44.12863" lon="5.009">
        <ele>144</ele>
        <time>2022-01-16T10:13:16Z</time>
      </trkpt>
      <trkpt lat="44.12859" lon="5.00913">
        <ele>145.2</ele>
        <time>2022-01-16T10:13:29Z</time>
      </trkpt>
      <trkpt lat="44.12854" lon="5.00931">
        <ele>146.8</ele>
        <time>2022-01-16T10:13:46Z</time>
      </trkpt>
      <trkpt lat="44.12851" lon="5.00956">
        <ele>148.8</ele>
        <time>2022-01-16T10:14:07Z</time>
      </trkpt>
      <trkpt lat="44.12851" lon="5.0096">
        <ele>149.1</ele>
        <time>2022-01-16T10:14:10Z</time>
      </trkpt>
      <trkpt lat="44.12852" lon="5.00981">
        <ele>150.2</ele>
        <time>2022-01-16T10:14:30Z</time>
      </trkpt>
      <trkpt lat="44.12851" lon="5.00997">
        <ele>152</ele>
        <time>2022-01-16T10:14:48Z</time>
      </trkpt>
      <trkpt lat="44.12849" lon="5.01009">
        <ele>155.2</ele>
        <time>2022-01-16T10:14:58Z</time>
      </trkpt>
      <trkpt lat="44.12852" lon="5.01028">
        <ele>158.7</ele>
        <time>2022-01-16T10:15:16Z</time>
      </trkpt>
      <trkpt lat="44.12856" lon="5.01042">
        <ele>162.9</ele>
        <time>2022-01-16T10:15:34Z</time>
      </trkpt>
      <trkpt lat="44.12862" lon="5.01033">
        <ele>159.6</ele>
        <time>2022-01-16T10:15:48Z</time>
      </trkpt>
      <trkpt lat="44.12867" lon="5.01026">
        <ele>156.9</ele>
        <time>2022-01-16T10:16:06Z</time>
      </trkpt>
      <trkpt lat="44.12865" lon="5.01023">
        <ele>155.8</ele>
        <time>2022-01-16T10:16:31Z</time>
      </trkpt>
      <trkpt lat="44.1287" lon="5.01026">
        <ele>156.7</ele>
        <time>2022-01-16T10:16:50Z</time>
      </trkpt>
      <trkpt lat="44.1287" lon="5.01032">
        <ele>158.7</ele>
        <time>2022-01-16T10:17:15Z</time>
      </trkpt>
      <trkpt lat="44.12872" lon="5.01028">
        <ele>157.3</ele>
        <time>2022-01-16T10:17:34Z</time>
      </trkpt>
      <trkpt lat="44.1287" lon="5.01033">
        <ele>159</ele>
        <time>2022-01-16T10:18:04Z</time>
      </trkpt>
      <trkpt lat="44.12869" lon="5.01036">
        <ele>160</ele>
        <time>2022-01-16T10:18:26Z</time>
      </trkpt>
      <trkpt lat="44.12867" lon="5.01035">
        <ele>159.9</ele>
        <time>2022-01-16T10:18:41Z</time>
      </trkpt>
      <trkpt lat="44.12869" lon="5.01034">
        <ele>159.4</ele>
        <time>2022-01-16T10:18:57Z</time>
      </trkpt>
      <trkpt lat="44.1287" lon="5.01036">
        <ele>159.9</ele>
        <time>2022-01-16T10:19:10Z</time>
      </trkpt>
      <trkpt lat="44.12866" lon="5.01036">
        <ele>160.3</ele>
        <time>2022-01-16T10:19:23Z</time>
      </trkpt>
      <trkpt lat="44.12867" lon="5.01037">
        <ele>160.5</ele>
        <time>2022-01-16T10:19:24Z</time>
      </trkpt>
      <trkpt lat="44.12876" lon="5.01036">
        <ele>159.4</ele>
        <time>2022-01-16T10:19:34Z</time>
      </trkpt>
      <trkpt lat="44.12876" lon="5.01034">
        <ele>158.8</ele>
        <time>2022-01-16T10:19:58Z</time>
      </trkpt>
      <trkpt lat="44.12879" lon="5.0103">
        <ele>157.4</ele>
        <time>2022-01-16T10:20:06Z</time>
      </trkpt>
      <trkpt lat="44.12888" lon="5.01018">
        <ele>153.2</ele>
        <time>2022-01-16T10:20:20Z</time>
      </trkpt>
      <trkpt lat="44.12882" lon="5.01027">
        <ele>156.2</ele>
        <time>2022-01-16T10:20:34Z</time>
      </trkpt>
      <trkpt lat="44.12881" lon="5.01027">
        <ele>156.3</ele>
        <time>2022-01-16T10:20:53Z</time>
      </trkpt>
      <trkpt lat="44.12878" lon="5.01034">
        <ele>158.7</ele>
        <time>2022-01-16T10:21:14Z</time>
      </trkpt>
      <trkpt lat="44.12876" lon="5.01038">
        <ele>160</ele>
        <time>2022-01-16T10:21:33Z</time>
      </trkpt>
      <trkpt lat="44.12875" lon="5.01045">
        <ele>162.3</ele>
        <time>2022-01-16T10:22:00Z</time>
      </trkpt>
      <trkpt lat="44.12882" lon="5.01061">
        <ele>165</ele>
        <time>2022-01-16T10:22:20Z</time>
      </trkpt>
      <trkpt lat="44.12882" lon="5.01078">
        <ele>166</ele>
        <time>2022-01-16T10:22:37Z</time>
      </trkpt>
      <trkpt lat="44.12869" lon="5.01094">
        <ele>167.8</ele>
        <time>2022-01-16T10:22:57Z</time>
      </trkpt>
      <trkpt lat="44.12853" lon="5.01106">
        <ele>171</ele>
        <time>2022-01-16T10:23:19Z</time>
      </trkpt>
      <trkpt lat="44.12838" lon="5.01124">
        <ele>173.3</ele>
        <time>2022-01-16T10:23:41Z</time>
      </trkpt>
      <trkpt lat="44.12821" lon="5.01139">
        <ele>176.2</ele>
        <time>2022-01-16T10:24:03Z</time>
      </trkpt>
      <trkpt lat="44.12806" lon="5.01152">
        <ele>178.4</ele>
        <time>2022-01-16T10:24:20Z</time>
      </trkpt>
      <trkpt lat="44.12789" lon="5.01162">
        <ele>181.3</ele>
        <time>2022-01-16T10:24:39Z</time>
      </trkpt>
      <trkpt lat="44.12779" lon="5.0117">
        <ele>182.8</ele>
        <time>2022-01-16T10:24:51Z</time>
      </trkpt>
      <trkpt lat="44.12764" lon="5.01177">
        <ele>186</ele>
        <time>2022-01-16T10:25:08Z</time>
      </trkpt>
      <trkpt lat="44.12754" lon="5.01184">
        <ele>187.2</ele>
        <time>2022-01-16T10:25:25Z</time>
      </trkpt>
      <trkpt lat="44.12752" lon="5.01186">
        <ele>187.2</ele>
        <time>2022-01-16T10:25:27Z</time>
      </trkpt>
      <trkpt lat="44.12751" lon="5.01187">
        <ele>187.2</ele>
        <time>2022-01-16T10:25:28Z</time>
      </trkpt>
      <trkpt lat="44.1275" lon="5.01188">
        <ele>187.2</ele>
        <time>2022-01-16T10:25:29Z</time>
      </trkpt>
      <trkpt lat="44.12737" lon="5.01207">
        <ele>190.3</ele>
        <time>2022-01-16T10:25:46Z</time>
      </trkpt>
      <trkpt lat="44.12727" lon="5.01225">
        <ele>191.5</ele>
        <time>2022-01-16T10:26:06Z</time>
      </trkpt>
      <trkpt lat="44.12716" lon="5.0124">
        <ele>193.3</ele>
        <time>2022-01-16T10:26:23Z</time>
      </trkpt>
      <trkpt lat="44.12708" lon="5.01252">
        <ele>194.5</ele>
        <time>2022-01-16T10:26:35Z</time>
      </trkpt>
      <trkpt lat="44.12703" lon="5.0126">
        <ele>195.5</ele>
        <time>2022-01-16T10:26:44Z</time>
      </trkpt>
      <trkpt lat="44.12703" lon="5.01262">
        <ele>195.3</ele>
        <time>2022-01-16T10:26:45Z</time>
      </trkpt>
      <trkpt lat="44.127" lon="5.01281">
        <ele>194.7</ele>
        <time>2022-01-16T10:26:59Z</time>
      </trkpt>
      <trkpt lat="44.12699" lon="5.01289">
        <ele>194.7</ele>
        <time>2022-01-16T10:27:06Z</time>
      </trkpt>
      <trkpt lat="44.12702" lon="5.01287">
        <ele>194.1</ele>
        <time>2022-01-16T10:27:09Z</time>
      </trkpt>
      <trkpt lat="44.12707" lon="5.01287">
        <ele>193.1</ele>
        <time>2022-01-16T10:27:24Z</time>
      </trkpt>
      <trkpt lat="44.12704" lon="5.01283">
        <ele>193.8</ele>
        <time>2022-01-16T10:27:42Z</time>
      </trkpt>
      <trkpt lat="44.12697" lon="5.01281">
        <ele>195.3</ele>
        <time>2022-01-16T10:28:01Z</time>
      </trkpt>
      <trkpt lat="44.12697" lon="5.01279">
        <ele>195.4</ele>
        <time>2022-01-16T10:28:33Z</time>
      </trkpt>
      <trkpt lat="44.12697" lon="5.01283">
        <ele>195.3</ele>
        <time>2022-01-16T10:28:51Z</time>
      </trkpt>
      <trkpt lat="44.12691" lon="5.01288">
        <ele>197</ele>
        <time>2022-01-16T10:29:09Z</time>
      </trkpt>
      <trkpt lat="44.12685" lon="5.01295">
        <ele>198.8</ele>
        <time>2022-01-16T10:29:15Z</time>
      </trkpt>
      <trkpt lat="44.1268" lon="5.0132">
        <ele>199.1</ele>
        <time>2022-01-16T10:29:36Z</time>
      </trkpt>
      <trkpt lat="44.12676" lon="5.01343">
        <ele>199</ele>
        <time>2022-01-16T10:29:56Z</time>
      </trkpt>
      <trkpt lat="44.12675" lon="5.0136">
        <ele>198</ele>
        <time>2022-01-16T10:30:11Z</time>
      </trkpt>
      <trkpt lat="44.12672" lon="5.01381">
        <ele>198.7</ele>
        <time>2022-01-16T10:30:25Z</time>
      </trkpt>
      <trkpt lat="44.12673" lon="5.01383">
        <ele>198.4</ele>
        <time>2022-01-16T10:30:26Z</time>
      </trkpt>
      <trkpt lat="44.12672" lon="5.01384">
        <ele>198.7</ele>
        <time>2022-01-16T10:30:27Z</time>
      </trkpt>
      <trkpt lat="44.12672" lon="5.01387">
        <ele>198.7</ele>
        <time>2022-01-16T10:30:29Z</time>
      </trkpt>
      <trkpt lat="44.12673" lon="5.01389">
        <ele>198.4</ele>
        <time>2022-01-16T10:30:30Z</time>
      </trkpt>
      <trkpt lat="44.12674" lon="5.01406">
        <ele>198.6</ele>
        <time>2022-01-16T10:30:42Z</time>
      </trkpt>
      <trkpt lat="44.12673" lon="5.01412">
        <ele>199</ele>
        <time>2022-01-16T10:30:45Z</time>
      </trkpt>
      <trkpt lat="44.12677" lon="5.01425">
        <ele>198.6</ele>
        <time>2022-01-16T10:30:56Z</time>
      </trkpt>
      <trkpt lat="44.12682" lon="5.01433">
        <ele>197.8</ele>
        <time>2022-01-16T10:31:06Z</time>
      </trkpt>
      <trkpt lat="44.12682" lon="5.01435">
        <ele>197.9</ele>
        <time>2022-01-16T10:31:08Z</time>
      </trkpt>
      <trkpt lat="44.12693" lon="5.0145">
        <ele>197</ele>
        <time>2022-01-16T10:31:23Z</time>
      </trkpt>
      <trkpt lat="44.12706" lon="5.01452">
        <ele>195.5</ele>
        <time>2022-01-16T10:31:36Z</time>
      </trkpt>
      <trkpt lat="44.12718" lon="5.01457">
        <ele>195.2</ele>
        <time>2022-01-16T10:31:49Z</time>
      </trkpt>
      <trkpt lat="44.12727" lon="5.01468">
        <ele>197</ele>
        <time>2022-01-16T10:32:02Z</time>
      </trkpt>
      <trkpt lat="44.12735" lon="5.01487">
        <ele>198.1</ele>
        <time>2022-01-16T10:32:17Z</time>
      </trkpt>
      <trkpt lat="44.12739" lon="5.01506">
        <ele>198.3</ele>
        <time>2022-01-16T10:32:31Z</time>
      </trkpt>
      <trkpt lat="44.1274" lon="5.01522">
        <ele>199</ele>
        <time>2022-01-16T10:32:43Z</time>
      </trkpt>
      <trkpt lat="44.1274" lon="5.01538">
        <ele>199.1</ele>
        <time>2022-01-16T10:32:55Z</time>
      </trkpt>
      <trkpt lat="44.1274" lon="5.01553">
        <ele>198.7</ele>
        <time>2022-01-16T10:33:06Z</time>
      </trkpt>
      <trkpt lat="44.12737" lon="5.01567">
        <ele>198.3</ele>
        <time>2022-01-16T10:33:16Z</time>
      </trkpt>
      <trkpt lat="44.12733" lon="5.01572">
        <ele>198.8</ele>
        <time>2022-01-16T10:33:19Z</time>
      </trkpt>
      <trkpt lat="44.1273" lon="5.01576">
        <ele>199.1</ele>
        <time>2022-01-16T10:33:22Z</time>
      </trkpt>
      <trkpt lat="44.12713" lon="5.0159">
        <ele>201.4</ele>
        <time>2022-01-16T10:33:41Z</time>
      </trkpt>
      <trkpt lat="44.12694" lon="5.01607">
        <ele>204.5</ele>
        <time>2022-01-16T10:34:05Z</time>
      </trkpt>
      <trkpt lat="44.12677" lon="5.01621">
        <ele>205.6</ele>
        <time>2022-01-16T10:34:25Z</time>
      </trkpt>
      <trkpt lat="44.12669" lon="5.01611">
        <ele>206.8</ele>
        <time>2022-01-16T10:34:49Z</time>
      </trkpt>
      <trkpt lat="44.1266" lon="5.01595">
        <ele>211.4</ele>
        <time>2022-01-16T10:35:09Z</time>
      </trkpt>
      <trkpt lat="44.12656" lon="5.01578">
        <ele>214.2</ele>
        <time>2022-01-16T10:35:27Z</time>
      </trkpt>
      <trkpt lat="44.1265" lon="5.01572">
        <ele>215.9</ele>
        <time>2022-01-16T10:35:42Z</time>
      </trkpt>
      <trkpt lat="44.12648" lon="5.01558">
        <ele>216.9</ele>
        <time>2022-01-16T10:35:57Z</time>
      </trkpt>
      <trkpt lat="44.12641" lon="5.01544">
        <ele>217.4</ele>
        <time>2022-01-16T10:36:10Z</time>
      </trkpt>
      <trkpt lat="44.12635" lon="5.01526">
        <ele>218.6</ele>
        <time>2022-01-16T10:36:29Z</time>
      </trkpt>
      <trkpt lat="44.12632" lon="5.01519">
        <ele>219.3</ele>
        <time>2022-01-16T10:36:35Z</time>
      </trkpt>
      <trkpt lat="44.12625" lon="5.01504">
        <ele>220.4</ele>
        <time>2022-01-16T10:36:48Z</time>
      </trkpt>
      <trkpt lat="44.12624" lon="5.01501">
        <ele>220.4</ele>
        <time>2022-01-16T10:36:51Z</time>
      </trkpt>
      <trkpt lat="44.12623" lon="5.015">
        <ele>220.6</ele>
        <time>2022-01-16T10:36:52Z</time>
      </trkpt>
      <trkpt lat="44.12623" lon="5.01499">
        <ele>220.5</ele>
        <time>2022-01-16T10:36:53Z</time>
      </trkpt>
      <trkpt lat="44.12618" lon="5.01485">
        <ele>221.2</ele>
        <time>2022-01-16T10:37:06Z</time>
      </trkpt>
      <trkpt lat="44.12613" lon="5.01469">
        <ele>222.4</ele>
        <time>2022-01-16T10:37:20Z</time>
      </trkpt>
      <trkpt lat="44.12609" lon="5.01444">
        <ele>224.7</ele>
        <time>2022-01-16T10:37:42Z</time>
      </trkpt>
      <trkpt lat="44.12605" lon="5.01423">
        <ele>226.2</ele>
        <time>2022-01-16T10:38:02Z</time>
      </trkpt>
      <trkpt lat="44.12604" lon="5.01408">
        <ele>226.8</ele>
        <time>2022-01-16T10:38:20Z</time>
      </trkpt>
      <trkpt lat="44.12604" lon="5.01403">
        <ele>226.9</ele>
        <time>2022-01-16T10:38:39Z</time>
      </trkpt>
      <trkpt lat="44.12612" lon="5.01392">
        <ele>226.2</ele>
        <time>2022-01-16T10:38:53Z</time>
      </trkpt>
      <trkpt lat="44.12613" lon="5.01392">
        <ele>225.6</ele>
        <time>2022-01-16T10:39:17Z</time>
      </trkpt>
      <trkpt lat="44.1261" lon="5.01392">
        <ele>226.8</ele>
        <time>2022-01-16T10:39:46Z</time>
      </trkpt>
      <trkpt lat="44.12608" lon="5.01393">
        <ele>226.9</ele>
        <time>2022-01-16T10:40:29Z</time>
      </trkpt>
      <trkpt lat="44.12608" lon="5.01391">
        <ele>227</ele>
        <time>2022-01-16T10:41:00Z</time>
      </trkpt>
      <trkpt lat="44.12608" lon="5.01389">
        <ele>227.1</ele>
        <time>2022-01-16T10:41:17Z</time>
      </trkpt>
      <trkpt lat="44.1261" lon="5.01391">
        <ele>226.9</ele>
        <time>2022-01-16T10:41:52Z</time>
      </trkpt>
      <trkpt lat="44.12608" lon="5.01393">
        <ele>226.9</ele>
        <time>2022-01-16T10:42:24Z</time>
      </trkpt>
      <trkpt lat="44.1261" lon="5.0139">
        <ele>227</ele>
        <time>2022-01-16T10:42:50Z</time>
      </trkpt>
      <trkpt lat="44.12608" lon="5.01393">
        <ele>226.9</ele>
        <time>2022-01-16T10:43:25Z</time>
      </trkpt>
      <trkpt lat="44.1261" lon="5.01391">
        <ele>226.9</ele>
        <time>2022-01-16T10:43:47Z</time>
      </trkpt>
      <trkpt lat="44.12611" lon="5.01389">
        <ele>227</ele>
        <time>2022-01-16T10:44:15Z</time>
      </trkpt>
      <trkpt lat="44.12611" lon="5.01383">
        <ele>227</ele>
        <time>2022-01-16T10:44:35Z</time>
      </trkpt>
      <trkpt lat="44.12614" lon="5.01368">
        <ele>225.3</ele>
        <time>2022-01-16T10:44:53Z</time>
      </trkpt>
      <trkpt lat="44.12603" lon="5.01361">
        <ele>226.7</ele>
        <time>2022-01-16T10:45:13Z</time>
      </trkpt>
      <trkpt lat="44.12596" lon="5.01358">
        <ele>226.5</ele>
        <time>2022-01-16T10:45:25Z</time>
      </trkpt>
      <trkpt lat="44.12597" lon="5.0136">
        <ele>226.5</ele>
        <time>2022-01-16T10:45:29Z</time>
      </trkpt>
      <trkpt lat="44.12606" lon="5.01363">
        <ele>226.8</ele>
        <time>2022-01-16T10:45:55Z</time>
      </trkpt>
      <trkpt lat="44.1261" lon="5.01364">
        <ele>227</ele>
        <time>2022-01-16T10:46:13Z</time>
      </trkpt>
      <trkpt lat="44.12618" lon="5.01354">
        <ele>223.5</ele>
        <time>2022-01-16T10:46:32Z</time>
      </trkpt>
      <trkpt lat="44.1262" lon="5.01339">
        <ele>223.7</ele>
        <time>2022-01-16T10:46:48Z</time>
      </trkpt>
      <trkpt lat="44.12623" lon="5.01326">
        <ele>223.4</ele>
        <time>2022-01-16T10:47:02Z</time>
      </trkpt>
      <trkpt lat="44.12625" lon="5.01316">
        <ele>223.2</ele>
        <time>2022-01-16T10:47:24Z</time>
      </trkpt>
      <trkpt lat="44.12629" lon="5.01317">
        <ele>221.6</ele>
        <time>2022-01-16T10:47:55Z</time>
      </trkpt>
      <trkpt lat="44.12631" lon="5.01314">
        <ele>221.1</ele>
        <time>2022-01-16T10:48:37Z</time>
      </trkpt>
      <trkpt lat="44.1263" lon="5.01308">
        <ele>222</ele>
        <time>2022-01-16T10:49:01Z</time>
      </trkpt>
      <trkpt lat="44.12631" lon="5.013">
        <ele>222.7</ele>
        <time>2022-01-16T10:49:18Z</time>
      </trkpt>
      <trkpt lat="44.12629" lon="5.01281">
        <ele>226</ele>
        <time>2022-01-16T10:49:36Z</time>
      </trkpt>
      <trkpt lat="44.12633" lon="5.01269">
        <ele>226.5</ele>
        <time>2022-01-16T10:49:52Z</time>
      </trkpt>
      <trkpt lat="44.12636" lon="5.01256">
        <ele>227.6</ele>
        <time>2022-01-16T10:50:07Z</time>
      </trkpt>
      <trkpt lat="44.12629" lon="5.01249">
        <ele>229.6</ele>
        <time>2022-01-16T10:51:27Z</time>
      </trkpt>
      <trkpt lat="44.12632" lon="5.01249">
        <ele>229.2</ele>
        <time>2022-01-16T10:51:41Z</time>
      </trkpt>
      <trkpt lat="44.12636" lon="5.01249">
        <ele>228.7</ele>
        <time>2022-01-16T10:52:13Z</time>
      </trkpt>
      <trkpt lat="44.12633" lon="5.01257">
        <ele>228</ele>
        <time>2022-01-16T10:53:06Z</time>
      </trkpt>
      <trkpt lat="44.12636" lon="5.01265">
        <ele>226.4</ele>
        <time>2022-01-16T10:53:26Z</time>
      </trkpt>
      <trkpt lat="44.12634" lon="5.01272">
        <ele>226</ele>
        <time>2022-01-16T10:53:46Z</time>
      </trkpt>
      <trkpt lat="44.12629" lon="5.01285">
        <ele>225.5</ele>
        <time>2022-01-16T10:54:12Z</time>
      </trkpt>
      <trkpt lat="44.1263" lon="5.01297">
        <ele>223.4</ele>
        <time>2022-01-16T10:54:29Z</time>
      </trkpt>
      <trkpt lat="44.12622" lon="5.01298">
        <ele>225.9</ele>
        <time>2022-01-16T10:55:18Z</time>
      </trkpt>
      <trkpt lat="44.12625" lon="5.01301">
        <ele>224.6</ele>
        <time>2022-01-16T10:55:24Z</time>
      </trkpt>
      <trkpt lat="44.12629" lon="5.01311">
        <ele>222.1</ele>
        <time>2022-01-16T10:55:42Z</time>
      </trkpt>
      <trkpt lat="44.12624" lon="5.01313">
        <ele>223.8</ele>
        <time>2022-01-16T10:56:09Z</time>
      </trkpt>
      <trkpt lat="44.12622" lon="5.01311">
        <ele>224.7</ele>
        <time>2022-01-16T10:56:41Z</time>
      </trkpt>
      <trkpt lat="44.12622" lon="5.01322">
        <ele>224</ele>
        <time>2022-01-16T10:57:03Z</time>
      </trkpt>
      <trkpt lat="44.1262" lon="5.01339">
        <ele>223.7</ele>
        <time>2022-01-16T10:57:18Z</time>
      </trkpt>
      <trkpt lat="44.12621" lon="5.01355">
        <ele>221.8</ele>
        <time>2022-01-16T10:57:32Z</time>
      </trkpt>
      <trkpt lat="44.12614" lon="5.01379">
        <ele>225.3</ele>
        <time>2022-01-16T10:57:49Z</time>
      </trkpt>
      <trkpt lat="44.12601" lon="5.01393">
        <ele>227.3</ele>
        <time>2022-01-16T10:58:07Z</time>
      </trkpt>
      <trkpt lat="44.12592" lon="5.01398">
        <ele>228.2</ele>
        <time>2022-01-16T10:58:25Z</time>
      </trkpt>
      <trkpt lat="44.12587" lon="5.014">
        <ele>228.8</ele>
        <time>2022-01-16T10:58:56Z</time>
      </trkpt>
      <trkpt lat="44.12586" lon="5.01401">
        <ele>229</ele>
        <time>2022-01-16T10:59:30Z</time>
      </trkpt>
      <trkpt lat="44.12587" lon="5.01412">
        <ele>229.8</ele>
        <time>2022-01-16T10:59:49Z</time>
      </trkpt>
      <trkpt lat="44.12581" lon="5.01424">
        <ele>231.1</ele>
        <time>2022-01-16T11:00:06Z</time>
      </trkpt>
      <trkpt lat="44.12572" lon="5.01428">
        <ele>229.8</ele>
        <time>2022-01-16T11:00:19Z</time>
      </trkpt>
      <trkpt lat="44.12566" lon="5.01434">
        <ele>229.1</ele>
        <time>2022-01-16T11:00:31Z</time>
      </trkpt>
      <trkpt lat="44.12564" lon="5.01442">
        <ele>229.3</ele>
        <time>2022-01-16T11:00:39Z</time>
      </trkpt>
      <trkpt lat="44.12564" lon="5.01451">
        <ele>229.7</ele>
        <time>2022-01-16T11:00:46Z</time>
      </trkpt>
      <trkpt lat="44.12567" lon="5.01466">
        <ele>230.5</ele>
        <time>2022-01-16T11:01:04Z</time>
      </trkpt>
      <trkpt lat="44.12568" lon="5.01484">
        <ele>231</ele>
        <time>2022-01-16T11:01:19Z</time>
      </trkpt>
      <trkpt lat="44.12568" lon="5.01497">
        <ele>231.3</ele>
        <time>2022-01-16T11:01:33Z</time>
      </trkpt>
      <trkpt lat="44.12567" lon="5.01498">
        <ele>231.2</ele>
        <time>2022-01-16T11:01:34Z</time>
      </trkpt>
      <trkpt lat="44.12569" lon="5.01513">
        <ele>232.1</ele>
        <time>2022-01-16T11:01:47Z</time>
      </trkpt>
      <trkpt lat="44.12569" lon="5.01514">
        <ele>232.2</ele>
        <time>2022-01-16T11:01:48Z</time>
      </trkpt>
      <trkpt lat="44.12571" lon="5.01517">
        <ele>232.6</ele>
        <time>2022-01-16T11:01:50Z</time>
      </trkpt>
      <trkpt lat="44.12571" lon="5.01519">
        <ele>232.7</ele>
        <time>2022-01-16T11:01:51Z</time>
      </trkpt>
      <trkpt lat="44.1257" lon="5.01521">
        <ele>232.7</ele>
        <time>2022-01-16T11:01:52Z</time>
      </trkpt>
      <trkpt lat="44.1257" lon="5.01522">
        <ele>232.8</ele>
        <time>2022-01-16T11:01:53Z</time>
      </trkpt>
      <trkpt lat="44.1257" lon="5.01524">
        <ele>232.9</ele>
        <time>2022-01-16T11:01:54Z</time>
      </trkpt>
      <trkpt lat="44.1257" lon="5.01526">
        <ele>233</ele>
        <time>2022-01-16T11:01:55Z</time>
      </trkpt>
      <trkpt lat="44.12566" lon="5.01547">
        <ele>233.9</ele>
        <time>2022-01-16T11:02:08Z</time>
      </trkpt>
      <trkpt lat="44.12564" lon="5.01563">
        <ele>234.7</ele>
        <time>2022-01-16T11:02:19Z</time>
      </trkpt>
      <trkpt lat="44.12565" lon="5.01565">
        <ele>234.9</ele>
        <time>2022-01-16T11:02:21Z</time>
      </trkpt>
      <trkpt lat="44.12567" lon="5.01575">
        <ele>235.8</ele>
        <time>2022-01-16T11:02:31Z</time>
      </trkpt>
      <trkpt lat="44.12569" lon="5.0159">
        <ele>237.4</ele>
        <time>2022-01-16T11:02:47Z</time>
      </trkpt>
      <trkpt lat="44.1257" lon="5.01606">
        <ele>239.9</ele>
        <time>2022-01-16T11:03:05Z</time>
      </trkpt>
      <trkpt lat="44.12572" lon="5.01613">
        <ele>241.2</ele>
        <time>2022-01-16T11:03:19Z</time>
      </trkpt>
      <trkpt lat="44.12578" lon="5.01612">
        <ele>242.7</ele>
        <time>2022-01-16T11:03:34Z</time>
      </trkpt>
      <trkpt lat="44.1258" lon="5.01615">
        <ele>243.4</ele>
        <time>2022-01-16T11:04:04Z</time>
      </trkpt>
      <trkpt lat="44.12578" lon="5.01617">
        <ele>243</ele>
        <time>2022-01-16T11:04:35Z</time>
      </trkpt>
      <trkpt lat="44.12579" lon="5.01626">
        <ele>243.8</ele>
        <time>2022-01-16T11:04:54Z</time>
      </trkpt>
      <trkpt lat="44.1258" lon="5.01637">
        <ele>244.8</ele>
        <time>2022-01-16T11:05:06Z</time>
      </trkpt>
      <trkpt lat="44.1258" lon="5.01639">
        <ele>244.9</ele>
        <time>2022-01-16T11:05:07Z</time>
      </trkpt>
      <trkpt lat="44.12581" lon="5.01646">
        <ele>245.4</ele>
        <time>2022-01-16T11:05:13Z</time>
      </trkpt>
      <trkpt lat="44.12584" lon="5.0166">
        <ele>246.5</ele>
        <time>2022-01-16T11:05:24Z</time>
      </trkpt>
      <trkpt lat="44.12581" lon="5.01671">
        <ele>245.8</ele>
        <time>2022-01-16T11:05:39Z</time>
      </trkpt>
      <trkpt lat="44.12581" lon="5.01671">
        <ele>245.8</ele>
        <time>2022-01-16T11:06:05Z</time>
      </trkpt>
      <trkpt lat="44.12581" lon="5.01673">
        <ele>245.7</ele>
        <time>2022-01-16T11:06:28Z</time>
      </trkpt>
      <trkpt lat="44.12581" lon="5.01674">
        <ele>245.7</ele>
        <time>2022-01-16T11:06:44Z</time>
      </trkpt>
      <trkpt lat="44.1258" lon="5.01675">
        <ele>245.2</ele>
        <time>2022-01-16T11:07:19Z</time>
      </trkpt>
      <trkpt lat="44.12582" lon="5.01676">
        <ele>246</ele>
        <time>2022-01-16T11:07:39Z</time>
      </trkpt>
      <trkpt lat="44.12582" lon="5.01674">
        <ele>246.1</ele>
        <time>2022-01-16T11:08:14Z</time>
      </trkpt>
      <trkpt lat="44.12585" lon="5.01679">
        <ele>246.2</ele>
        <time>2022-01-16T11:08:27Z</time>
      </trkpt>
      <trkpt lat="44.12584" lon="5.01693">
        <ele>246</ele>
        <time>2022-01-16T11:08:41Z</time>
      </trkpt>
      <trkpt lat="44.12588" lon="5.01707">
        <ele>246.4</ele>
        <time>2022-01-16T11:08:52Z</time>
      </trkpt>
      <trkpt lat="44.12591" lon="5.01719">
        <ele>247.3</ele>
        <time>2022-01-16T11:09:03Z</time>
      </trkpt>
      <trkpt lat="44.12596" lon="5.0173">
        <ele>248.4</ele>
        <time>2022-01-16T11:09:15Z</time>
      </trkpt>
      <trkpt lat="44.12597" lon="5.01751">
        <ele>250</ele>
        <time>2022-01-16T11:09:31Z</time>
      </trkpt>
      <trkpt lat="44.12597" lon="5.01752">
        <ele>250</ele>
        <time>2022-01-16T11:09:32Z</time>
      </trkpt>
      <trkpt lat="44.12601" lon="5.01765">
        <ele>251.4</ele>
        <time>2022-01-16T11:09:43Z</time>
      </trkpt>
      <trkpt lat="44.12604" lon="5.01776">
        <ele>252.6</ele>
        <time>2022-01-16T11:09:56Z</time>
      </trkpt>
      <trkpt lat="44.1261" lon="5.01773">
        <ele>254.5</ele>
        <time>2022-01-16T11:10:09Z</time>
      </trkpt>
      <trkpt lat="44.12614" lon="5.01771">
        <ele>252.7</ele>
        <time>2022-01-16T11:10:28Z</time>
      </trkpt>
      <trkpt lat="44.12614" lon="5.01771">
        <ele>252.7</ele>
        <time>2022-01-16T11:10:32Z</time>
      </trkpt>
      <trkpt lat="44.12617" lon="5.0177">
        <ele>250.5</ele>
        <time>2022-01-16T11:10:41Z</time>
      </trkpt>
      <trkpt lat="44.12615" lon="5.01772">
        <ele>252</ele>
        <time>2022-01-16T11:10:56Z</time>
      </trkpt>
      <trkpt lat="44.12614" lon="5.01772">
        <ele>252.8</ele>
        <time>2022-01-16T11:11:08Z</time>
      </trkpt>
      <trkpt lat="44.12614" lon="5.01772">
        <ele>252.8</ele>
        <time>2022-01-16T11:11:30Z</time>
      </trkpt>
      <trkpt lat="44.12618" lon="5.0177">
        <ele>249.8</ele>
        <time>2022-01-16T11:12:18Z</time>
      </trkpt>
      <trkpt lat="44.12619" lon="5.01771">
        <ele>249.2</ele>
        <time>2022-01-16T11:12:38Z</time>
      </trkpt>
      <trkpt lat="44.12621" lon="5.01773">
        <ele>247.9</ele>
        <time>2022-01-16T11:13:07Z</time>
      </trkpt>
      <trkpt lat="44.1262" lon="5.01775">
        <ele>248.7</ele>
        <time>2022-01-16T11:13:25Z</time>
      </trkpt>
      <trkpt lat="44.12619" lon="5.01775">
        <ele>249.4</ele>
        <time>2022-01-16T11:14:06Z</time>
      </trkpt>
      <trkpt lat="44.12615" lon="5.01773">
        <ele>252.1</ele>
        <time>2022-01-16T11:14:42Z</time>
      </trkpt>
      <trkpt lat="44.12612" lon="5.01776">
        <ele>254.3</ele>
        <time>2022-01-16T11:15:36Z</time>
      </trkpt>
      <trkpt lat="44.12612" lon="5.01774">
        <ele>254.2</ele>
        <time>2022-01-16T11:16:36Z</time>
      </trkpt>
      <trkpt lat="44.12613" lon="5.01777">
        <ele>253.7</ele>
        <time>2022-01-16T11:17:33Z</time>
      </trkpt>
      <trkpt lat="44.12614" lon="5.01776">
        <ele>252.9</ele>
        <time>2022-01-16T11:18:20Z</time>
      </trkpt>
      <trkpt lat="44.12613" lon="5.01774">
        <ele>253.5</ele>
        <time>2022-01-16T11:19:22Z</time>
      </trkpt>
      <trkpt lat="44.12614" lon="5.01776">
        <ele>252.9</ele>
        <time>2022-01-16T11:20:06Z</time>
      </trkpt>
      <trkpt lat="44.12612" lon="5.01774">
        <ele>254.2</ele>
        <time>2022-01-16T11:20:49Z</time>
      </trkpt>
      <trkpt lat="44.12611" lon="5.01775">
        <ele>254.9</ele>
        <time>2022-01-16T11:21:35Z</time>
      </trkpt>
      <trkpt lat="44.12613" lon="5.01774">
        <ele>253.5</ele>
        <time>2022-01-16T11:22:33Z</time>
      </trkpt>
      <trkpt lat="44.12612" lon="5.01774">
        <ele>254.2</ele>
        <time>2022-01-16T11:23:37Z</time>
      </trkpt>
      <trkpt lat="44.1261" lon="5.01772">
        <ele>254.4</ele>
        <time>2022-01-16T11:24:34Z</time>
      </trkpt>
      <trkpt lat="44.1261" lon="5.0177">
        <ele>254.4</ele>
        <time>2022-01-16T11:25:26Z</time>
      </trkpt>
      <trkpt lat="44.12613" lon="5.01773">
        <ele>253.5</ele>
        <time>2022-01-16T11:26:22Z</time>
      </trkpt>
      <trkpt lat="44.12613" lon="5.01774">
        <ele>253.5</ele>
        <time>2022-01-16T11:27:11Z</time>
      </trkpt>
      <trkpt lat="44.12613" lon="5.01773">
        <ele>253.5</ele>
        <time>2022-01-16T11:28:06Z</time>
      </trkpt>
      <trkpt lat="44.12614" lon="5.0177">
        <ele>252.7</ele>
        <time>2022-01-16T11:28:38Z</time>
      </trkpt>
      <trkpt lat="44.12614" lon="5.01774">
        <ele>252.8</ele>
        <time>2022-01-16T11:29:13Z</time>
      </trkpt>
      <trkpt lat="44.12614" lon="5.01773">
        <ele>252.8</ele>
        <time>2022-01-16T11:29:54Z</time>
      </trkpt>
      <trkpt lat="44.12615" lon="5.01773">
        <ele>252.1</ele>
        <time>2022-01-16T11:30:42Z</time>
      </trkpt>
      <trkpt lat="44.12613" lon="5.01772">
        <ele>253.5</ele>
        <time>2022-01-16T11:31:25Z</time>
      </trkpt>
      <trkpt lat="44.12612" lon="5.01773">
        <ele>254.2</ele>
        <time>2022-01-16T11:32:19Z</time>
      </trkpt>
      <trkpt lat="44.12609" lon="5.01772">
        <ele>254.1</ele>
        <time>2022-01-16T11:32:47Z</time>
      </trkpt>
      <trkpt lat="44.12603" lon="5.01781">
        <ele>252.5</ele>
        <time>2022-01-16T11:32:59Z</time>
      </trkpt>
      <trkpt lat="44.12601" lon="5.01775">
        <ele>251.7</ele>
        <time>2022-01-16T11:33:14Z</time>
      </trkpt>
      <trkpt lat="44.126" lon="5.01773">
        <ele>251.3</ele>
        <time>2022-01-16T11:33:27Z</time>
      </trkpt>
      <trkpt lat="44.12602" lon="5.01772">
        <ele>251.9</ele>
        <time>2022-01-16T11:33:54Z</time>
      </trkpt>
      <trkpt lat="44.12604" lon="5.01778">
        <ele>252.7</ele>
        <time>2022-01-16T11:34:09Z</time>
      </trkpt>
      <trkpt lat="44.12608" lon="5.01785">
        <ele>254.2</ele>
        <time>2022-01-16T11:34:19Z</time>
      </trkpt>
      <trkpt lat="44.12609" lon="5.01794">
        <ele>254.9</ele>
        <time>2022-01-16T11:34:33Z</time>
      </trkpt>
      <trkpt lat="44.12609" lon="5.01803">
        <ele>255.2</ele>
        <time>2022-01-16T11:34:49Z</time>
      </trkpt>
      <trkpt lat="44.1261" lon="5.01814">
        <ele>256.2</ele>
        <time>2022-01-16T11:35:09Z</time>
      </trkpt>
      <trkpt lat="44.12607" lon="5.01829">
        <ele>256</ele>
        <time>2022-01-16T11:35:22Z</time>
      </trkpt>
      <trkpt lat="44.12603" lon="5.01836">
        <ele>254.4</ele>
        <time>2022-01-16T11:35:33Z</time>
      </trkpt>
      <trkpt lat="44.12605" lon="5.0184">
        <ele>255.1</ele>
        <time>2022-01-16T11:35:45Z</time>
      </trkpt>
      <trkpt lat="44.12606" lon="5.01831">
        <ele>255.7</ele>
        <time>2022-01-16T11:36:00Z</time>
      </trkpt>
      <trkpt lat="44.12614" lon="5.01824">
        <ele>255.8</ele>
        <time>2022-01-16T11:36:13Z</time>
      </trkpt>
      <trkpt lat="44.12615" lon="5.01823">
        <ele>255.1</ele>
        <time>2022-01-16T11:36:15Z</time>
      </trkpt>
      <trkpt lat="44.12616" lon="5.01823">
        <ele>254.6</ele>
        <time>2022-01-16T11:36:16Z</time>
      </trkpt>
      <trkpt lat="44.12623" lon="5.01817">
        <ele>250.1</ele>
        <time>2022-01-16T11:36:34Z</time>
      </trkpt>
      <trkpt lat="44.12626" lon="5.01807">
        <ele>247.1</ele>
        <time>2022-01-16T11:36:50Z</time>
      </trkpt>
      <trkpt lat="44.12627" lon="5.01809">
        <ele>246.7</ele>
        <time>2022-01-16T11:37:11Z</time>
      </trkpt>
      <trkpt lat="44.12627" lon="5.01808">
        <ele>246.6</ele>
        <time>2022-01-16T11:37:37Z</time>
      </trkpt>
      <trkpt lat="44.12625" lon="5.01812">
        <ele>248.3</ele>
        <time>2022-01-16T11:38:21Z</time>
      </trkpt>
      <trkpt lat="44.12621" lon="5.0181">
        <ele>250.4</ele>
        <time>2022-01-16T11:38:37Z</time>
      </trkpt>
      <trkpt lat="44.12619" lon="5.01802">
        <ele>251</ele>
        <time>2022-01-16T11:38:52Z</time>
      </trkpt>
      <trkpt lat="44.12622" lon="5.01797">
        <ele>248.8</ele>
        <time>2022-01-16T11:39:17Z</time>
      </trkpt>
      <trkpt lat="44.12617" lon="5.0179">
        <ele>251.6</ele>
        <time>2022-01-16T11:39:36Z</time>
      </trkpt>
      <trkpt lat="44.12617" lon="5.01788">
        <ele>251.5</ele>
        <time>2022-01-16T11:40:27Z</time>
      </trkpt>
      <trkpt lat="44.12619" lon="5.018">
        <ele>250.9</ele>
        <time>2022-01-16T11:40:46Z</time>
      </trkpt>
      <trkpt lat="44.1262" lon="5.01807">
        <ele>250.7</ele>
        <time>2022-01-16T11:41:03Z</time>
      </trkpt>
      <trkpt lat="44.1262" lon="5.01804">
        <ele>250.5</ele>
        <time>2022-01-16T11:41:22Z</time>
      </trkpt>
      <trkpt lat="44.12623" lon="5.01807">
        <ele>248.9</ele>
        <time>2022-01-16T11:41:52Z</time>
      </trkpt>
      <trkpt lat="44.12622" lon="5.0181">
        <ele>249.8</ele>
        <time>2022-01-16T11:42:09Z</time>
      </trkpt>
      <trkpt lat="44.12622" lon="5.01811">
        <ele>250</ele>
        <time>2022-01-16T11:42:10Z</time>
      </trkpt>
      <trkpt lat="44.12622" lon="5.01812">
        <ele>250.1</ele>
        <time>2022-01-16T11:42:11Z</time>
      </trkpt>
      <trkpt lat="44.12619" lon="5.01824">
        <ele>253.1</ele>
        <time>2022-01-16T11:42:27Z</time>
      </trkpt>
      <trkpt lat="44.1261" lon="5.01822">
        <ele>256.7</ele>
        <time>2022-01-16T11:42:40Z</time>
      </trkpt>
      <trkpt lat="44.12606" lon="5.01805">
        <ele>254.1</ele>
        <time>2022-01-16T11:42:57Z</time>
      </trkpt>
      <trkpt lat="44.12606" lon="5.01794">
        <ele>253.8</ele>
        <time>2022-01-16T11:43:10Z</time>
      </trkpt>
      <trkpt lat="44.1261" lon="5.01784">
        <ele>254.9</ele>
        <time>2022-01-16T11:43:25Z</time>
      </trkpt>
      <trkpt lat="44.12611" lon="5.01781">
        <ele>255.1</ele>
        <time>2022-01-16T11:43:48Z</time>
      </trkpt>
      <trkpt lat="44.1261" lon="5.01781">
        <ele>254.8</ele>
        <time>2022-01-16T11:44:12Z</time>
      </trkpt>
      <trkpt lat="44.12611" lon="5.01781">
        <ele>255.1</ele>
        <time>2022-01-16T11:45:00Z</time>
      </trkpt>
      <trkpt lat="44.1261" lon="5.01783">
        <ele>254.8</ele>
        <time>2022-01-16T11:45:23Z</time>
      </trkpt>
      <trkpt lat="44.12612" lon="5.01782">
        <ele>254.6</ele>
        <time>2022-01-16T11:45:43Z</time>
      </trkpt>
      <trkpt lat="44.12612" lon="5.01781">
        <ele>254.5</ele>
        <time>2022-01-16T11:46:10Z</time>
      </trkpt>
      <trkpt lat="44.12612" lon="5.01781">
        <ele>254.5</ele>
        <time>2022-01-16T11:47:06Z</time>
      </trkpt>
      <trkpt lat="44.12613" lon="5.0178">
        <ele>253.8</ele>
        <time>2022-01-16T11:47:45Z</time>
      </trkpt>
      <trkpt lat="44.12612" lon="5.01777">
        <ele>254.4</ele>
        <time>2022-01-16T11:48:05Z</time>
      </trkpt>
      <trkpt lat="44.12612" lon="5.01772">
        <ele>254.2</ele>
        <time>2022-01-16T11:48:24Z</time>
      </trkpt>
      <trkpt lat="44.12613" lon="5.01772">
        <ele>253.5</ele>
        <time>2022-01-16T11:48:46Z</time>
      </trkpt>
      <trkpt lat="44.12615" lon="5.01772">
        <ele>252</ele>
        <time>2022-01-16T11:49:05Z</time>
      </trkpt>
      <trkpt lat="44.12615" lon="5.01772">
        <ele>252</ele>
        <time>2022-01-16T11:49:18Z</time>
      </trkpt>
      <trkpt lat="44.12613" lon="5.01775">
        <ele>253.6</ele>
        <time>2022-01-16T11:49:44Z</time>
      </trkpt>
      <trkpt lat="44.12612" lon="5.01773">
        <ele>254.2</ele>
        <time>2022-01-16T11:50:25Z</time>
      </trkpt>
      <trkpt lat="44.12613" lon="5.01775">
        <ele>253.6</ele>
        <time>2022-01-16T11:51:07Z</time>
      </trkpt>
      <trkpt lat="44.12614" lon="5.01774">
        <ele>252.8</ele>
        <time>2022-01-16T11:51:44Z</time>
      </trkpt>
      <trkpt lat="44.12611" lon="5.01772">
        <ele>254.8</ele>
        <time>2022-01-16T11:52:35Z</time>
      </trkpt>
      <trkpt lat="44.12612" lon="5.01774">
        <ele>254.2</ele>
        <time>2022-01-16T11:53:16Z</time>
      </trkpt>
      <trkpt lat="44.1261" lon="5.0177">
        <ele>254.4</ele>
        <time>2022-01-16T11:53:51Z</time>
      </trkpt>
      <trkpt lat="44.12608" lon="5.01774">
        <ele>253.9</ele>
        <time>2022-01-16T11:54:11Z</time>
      </trkpt>
      <trkpt lat="44.12609" lon="5.01773">
        <ele>254.2</ele>
        <time>2022-01-16T11:54:39Z</time>
      </trkpt>
      <trkpt lat="44.12608" lon="5.01776">
        <ele>253.9</ele>
        <time>2022-01-16T11:54:57Z</time>
      </trkpt>
      <trkpt lat="44.12611" lon="5.01772">
        <ele>254.8</ele>
        <time>2022-01-16T11:55:17Z</time>
      </trkpt>
      <trkpt lat="44.12608" lon="5.01774">
        <ele>253.9</ele>
        <time>2022-01-16T11:55:48Z</time>
      </trkpt>
      <trkpt lat="44.12608" lon="5.01775">
        <ele>253.9</ele>
        <time>2022-01-16T11:56:11Z</time>
      </trkpt>
      <trkpt lat="44.12609" lon="5.01783">
        <ele>254.5</ele>
        <time>2022-01-16T11:56:56Z</time>
      </trkpt>
      <trkpt lat="44.12607" lon="5.0178">
        <ele>253.7</ele>
        <time>2022-01-16T11:57:25Z</time>
      </trkpt>
      <trkpt lat="44.12608" lon="5.01781">
        <ele>254.1</ele>
        <time>2022-01-16T11:58:05Z</time>
      </trkpt>
      <trkpt lat="44.12609" lon="5.01785">
        <ele>254.6</ele>
        <time>2022-01-16T11:58:26Z</time>
      </trkpt>
      <trkpt lat="44.12612" lon="5.01783">
        <ele>254.6</ele>
        <time>2022-01-16T11:58:51Z</time>
      </trkpt>
      <trkpt lat="44.1261" lon="5.01775">
        <ele>254.5</ele>
        <time>2022-01-16T11:59:17Z</time>
      </trkpt>
      <trkpt lat="44.12611" lon="5.01779">
        <ele>255</ele>
        <time>2022-01-16T11:59:34Z</time>
      </trkpt>
      <trkpt lat="44.1261" lon="5.01782">
        <ele>254.8</ele>
        <time>2022-01-16T11:59:51Z</time>
      </trkpt>
      <trkpt lat="44.12611" lon="5.01773">
        <ele>254.8</ele>
        <time>2022-01-16T12:00:13Z</time>
      </trkpt>
      <trkpt lat="44.12613" lon="5.01774">
        <ele>253.5</ele>
        <time>2022-01-16T12:00:52Z</time>
      </trkpt>
      <trkpt lat="44.12613" lon="5.01773">
        <ele>253.5</ele>
        <time>2022-01-16T12:01:15Z</time>
      </trkpt>
      <trkpt lat="44.12611" lon="5.01773">
        <ele>254.8</ele>
        <time>2022-01-16T12:01:33Z</time>
      </trkpt>
      <trkpt lat="44.12611" lon="5.01781">
        <ele>255.1</ele>
        <time>2022-01-16T12:02:06Z</time>
      </trkpt>
      <trkpt lat="44.12611" lon="5.01781">
        <ele>255.1</ele>
        <time>2022-01-16T12:02:34Z</time>
      </trkpt>
      <trkpt lat="44.12612" lon="5.01774">
        <ele>254.2</ele>
        <time>2022-01-16T12:03:01Z</time>
      </trkpt>
      <trkpt lat="44.12609" lon="5.01773">
        <ele>254.2</ele>
        <time>2022-01-16T12:03:19Z</time>
      </trkpt>
      <trkpt lat="44.12608" lon="5.01774">
        <ele>253.9</ele>
        <time>2022-01-16T12:03:43Z</time>
      </trkpt>
      <trkpt lat="44.1261" lon="5.01776">
        <ele>254.6</ele>
        <time>2022-01-16T12:04:03Z</time>
      </trkpt>
      <trkpt lat="44.12613" lon="5.01774">
        <ele>253.5</ele>
        <time>2022-01-16T12:04:27Z</time>
      </trkpt>
      <trkpt lat="44.12614" lon="5.01773">
        <ele>252.8</ele>
        <time>2022-01-16T12:04:50Z</time>
      </trkpt>
      <trkpt lat="44.12611" lon="5.01773">
        <ele>254.8</ele>
        <time>2022-01-16T12:05:15Z</time>
      </trkpt>
      <trkpt lat="44.12611" lon="5.01777">
        <ele>254.9</ele>
        <time>2022-01-16T12:05:45Z</time>
      </trkpt>
      <trkpt lat="44.12611" lon="5.01776">
        <ele>254.9</ele>
        <time>2022-01-16T12:06:15Z</time>
      </trkpt>
      <trkpt lat="44.12612" lon="5.01782">
        <ele>254.6</ele>
        <time>2022-01-16T12:06:37Z</time>
      </trkpt>
      <trkpt lat="44.12609" lon="5.01782">
        <ele>254.5</ele>
        <time>2022-01-16T12:07:15Z</time>
      </trkpt>
      <trkpt lat="44.12609" lon="5.01799">
        <ele>255</ele>
        <time>2022-01-16T12:07:33Z</time>
      </trkpt>
      <trkpt lat="44.12608" lon="5.01814">
        <ele>255.4</ele>
        <time>2022-01-16T12:07:53Z</time>
      </trkpt>
      <trkpt lat="44.12616" lon="5.01821">
        <ele>254.4</ele>
        <time>2022-01-16T12:08:10Z</time>
      </trkpt>
      <trkpt lat="44.12624" lon="5.01844">
        <ele>254.2</ele>
        <time>2022-01-16T12:08:31Z</time>
      </trkpt>
      <trkpt lat="44.12628" lon="5.01867">
        <ele>258.8</ele>
        <time>2022-01-16T12:08:53Z</time>
      </trkpt>
      <trkpt lat="44.1263" lon="5.01888">
        <ele>259.3</ele>
        <time>2022-01-16T12:09:12Z</time>
      </trkpt>
      <trkpt lat="44.12631" lon="5.01899">
        <ele>261.1</ele>
        <time>2022-01-16T12:09:25Z</time>
      </trkpt>
      <trkpt lat="44.12632" lon="5.01914">
        <ele>264</ele>
        <time>2022-01-16T12:09:39Z</time>
      </trkpt>
      <trkpt lat="44.12632" lon="5.01928">
        <ele>264.9</ele>
        <time>2022-01-16T12:09:52Z</time>
      </trkpt>
      <trkpt lat="44.12633" lon="5.01941">
        <ele>265.6</ele>
        <time>2022-01-16T12:10:07Z</time>
      </trkpt>
      <trkpt lat="44.12634" lon="5.01944">
        <ele>265.9</ele>
        <time>2022-01-16T12:10:19Z</time>
      </trkpt>
      <trkpt lat="44.12637" lon="5.01954">
        <ele>267.2</ele>
        <time>2022-01-16T12:10:36Z</time>
      </trkpt>
      <trkpt lat="44.1264" lon="5.0197">
        <ele>267.8</ele>
        <time>2022-01-16T12:10:51Z</time>
      </trkpt>
      <trkpt lat="44.12642" lon="5.01988">
        <ele>267.5</ele>
        <time>2022-01-16T12:11:08Z</time>
      </trkpt>
      <trkpt lat="44.12644" lon="5.02">
        <ele>267</ele>
        <time>2022-01-16T12:11:20Z</time>
      </trkpt>
      <trkpt lat="44.12646" lon="5.0202">
        <ele>267.7</ele>
        <time>2022-01-16T12:11:36Z</time>
      </trkpt>
      <trkpt lat="44.12648" lon="5.02029">
        <ele>267.8</ele>
        <time>2022-01-16T12:11:49Z</time>
      </trkpt>
      <trkpt lat="44.12649" lon="5.02036">
        <ele>268</ele>
        <time>2022-01-16T12:12:04Z</time>
      </trkpt>
      <trkpt lat="44.12649" lon="5.02051">
        <ele>269.3</ele>
        <time>2022-01-16T12:12:19Z</time>
      </trkpt>
      <trkpt lat="44.1265" lon="5.02074">
        <ele>270.9</ele>
        <time>2022-01-16T12:12:37Z</time>
      </trkpt>
      <trkpt lat="44.12652" lon="5.02094">
        <ele>273</ele>
        <time>2022-01-16T12:12:54Z</time>
      </trkpt>
      <trkpt lat="44.12649" lon="5.02109">
        <ele>275.7</ele>
        <time>2022-01-16T12:13:13Z</time>
      </trkpt>
      <trkpt lat="44.12649" lon="5.02119">
        <ele>276.3</ele>
        <time>2022-01-16T12:13:28Z</time>
      </trkpt>
      <trkpt lat="44.12647" lon="5.02124">
        <ele>276.3</ele>
        <time>2022-01-16T12:13:48Z</time>
      </trkpt>
      <trkpt lat="44.12649" lon="5.02126">
        <ele>276.6</ele>
        <time>2022-01-16T12:14:19Z</time>
      </trkpt>
      <trkpt lat="44.12651" lon="5.02128">
        <ele>277</ele>
        <time>2022-01-16T12:14:37Z</time>
      </trkpt>
      <trkpt lat="44.1265" lon="5.02128">
        <ele>276.9</ele>
        <time>2022-01-16T12:14:50Z</time>
      </trkpt>
      <trkpt lat="44.12652" lon="5.02143">
        <ele>278</ele>
        <time>2022-01-16T12:15:05Z</time>
      </trkpt>
      <trkpt lat="44.12655" lon="5.02162">
        <ele>279.4</ele>
        <time>2022-01-16T12:15:21Z</time>
      </trkpt>
      <trkpt lat="44.12657" lon="5.02183">
        <ele>280.8</ele>
        <time>2022-01-16T12:15:38Z</time>
      </trkpt>
      <trkpt lat="44.12661" lon="5.02205">
        <ele>283.4</ele>
        <time>2022-01-16T12:15:55Z</time>
      </trkpt>
      <trkpt lat="44.12663" lon="5.02223">
        <ele>285.3</ele>
        <time>2022-01-16T12:16:08Z</time>
      </trkpt>
      <trkpt lat="44.12666" lon="5.02239">
        <ele>287.2</ele>
        <time>2022-01-16T12:16:21Z</time>
      </trkpt>
      <trkpt lat="44.12666" lon="5.02241">
        <ele>287.3</ele>
        <time>2022-01-16T12:16:22Z</time>
      </trkpt>
      <trkpt lat="44.12666" lon="5.02251">
        <ele>287.7</ele>
        <time>2022-01-16T12:16:31Z</time>
      </trkpt>
      <trkpt lat="44.12668" lon="5.02264">
        <ele>288.5</ele>
        <time>2022-01-16T12:16:43Z</time>
      </trkpt>
      <trkpt lat="44.1267" lon="5.02276">
        <ele>288.9</ele>
        <time>2022-01-16T12:16:53Z</time>
      </trkpt>
      <trkpt lat="44.1267" lon="5.02291">
        <ele>289.2</ele>
        <time>2022-01-16T12:17:08Z</time>
      </trkpt>
      <trkpt lat="44.1267" lon="5.02307">
        <ele>289.4</ele>
        <time>2022-01-16T12:17:23Z</time>
      </trkpt>
      <trkpt lat="44.12671" lon="5.0233">
        <ele>290</ele>
        <time>2022-01-16T12:17:43Z</time>
      </trkpt>
      <trkpt lat="44.12671" lon="5.02352">
        <ele>287.2</ele>
        <time>2022-01-16T12:18:05Z</time>
      </trkpt>
      <trkpt lat="44.12671" lon="5.02371">
        <ele>285.4</ele>
        <time>2022-01-16T12:18:23Z</time>
      </trkpt>
      <trkpt lat="44.1267" lon="5.02395">
        <ele>284.7</ele>
        <time>2022-01-16T12:18:40Z</time>
      </trkpt>
      <trkpt lat="44.12672" lon="5.0242">
        <ele>285</ele>
        <time>2022-01-16T12:18:59Z</time>
      </trkpt>
      <trkpt lat="44.12678" lon="5.0243">
        <ele>285.4</ele>
        <time>2022-01-16T12:19:13Z</time>
      </trkpt>
      <trkpt lat="44.12679" lon="5.02429">
        <ele>285.2</ele>
        <time>2022-01-16T12:19:37Z</time>
      </trkpt>
      <trkpt lat="44.12678" lon="5.02426">
        <ele>285.1</ele>
        <time>2022-01-16T12:20:04Z</time>
      </trkpt>
      <trkpt lat="44.12678" lon="5.02425">
        <ele>285</ele>
        <time>2022-01-16T12:20:29Z</time>
      </trkpt>
      <trkpt lat="44.12679" lon="5.02424">
        <ele>284.8</ele>
        <time>2022-01-16T12:21:03Z</time>
      </trkpt>
      <trkpt lat="44.12683" lon="5.02431">
        <ele>285.1</ele>
        <time>2022-01-16T12:21:15Z</time>
      </trkpt>
      <trkpt lat="44.12688" lon="5.02439">
        <ele>285.3</ele>
        <time>2022-01-16T12:21:27Z</time>
      </trkpt>
      <trkpt lat="44.12688" lon="5.0244">
        <ele>285.3</ele>
        <time>2022-01-16T12:21:28Z</time>
      </trkpt>
      <trkpt lat="44.12687" lon="5.02445">
        <ele>285.8</ele>
        <time>2022-01-16T12:21:32Z</time>
      </trkpt>
      <trkpt lat="44.12687" lon="5.02456">
        <ele>286.1</ele>
        <time>2022-01-16T12:21:44Z</time>
      </trkpt>
      <trkpt lat="44.12688" lon="5.02463">
        <ele>286.2</ele>
        <time>2022-01-16T12:21:58Z</time>
      </trkpt>
      <trkpt lat="44.12691" lon="5.02474">
        <ele>285.8</ele>
        <time>2022-01-16T12:22:11Z</time>
      </trkpt>
      <trkpt lat="44.12688" lon="5.0248">
        <ele>286.7</ele>
        <time>2022-01-16T12:22:25Z</time>
      </trkpt>
      <trkpt lat="44.12684" lon="5.02481">
        <ele>287.7</ele>
        <time>2022-01-16T12:22:36Z</time>
      </trkpt>
      <trkpt lat="44.12686" lon="5.0249">
        <ele>287.7</ele>
        <time>2022-01-16T12:22:48Z</time>
      </trkpt>
      <trkpt lat="44.12686" lon="5.02497">
        <ele>288</ele>
        <time>2022-01-16T12:23:01Z</time>
      </trkpt>
      <trkpt lat="44.1269" lon="5.02509">
        <ele>287</ele>
        <time>2022-01-16T12:23:15Z</time>
      </trkpt>
      <trkpt lat="44.12693" lon="5.02519">
        <ele>286.3</ele>
        <time>2022-01-16T12:23:28Z</time>
      </trkpt>
      <trkpt lat="44.12693" lon="5.02525">
        <ele>286.3</ele>
        <time>2022-01-16T12:23:41Z</time>
      </trkpt>
      <trkpt lat="44.12695" lon="5.02536">
        <ele>285.5</ele>
        <time>2022-01-16T12:23:52Z</time>
      </trkpt>
      <trkpt lat="44.12697" lon="5.02533">
        <ele>284.8</ele>
        <time>2022-01-16T12:24:09Z</time>
      </trkpt>
      <trkpt lat="44.12699" lon="5.02533">
        <ele>283.9</ele>
        <time>2022-01-16T12:24:33Z</time>
      </trkpt>
      <trkpt lat="44.12698" lon="5.02532">
        <ele>284.4</ele>
        <time>2022-01-16T12:25:02Z</time>
      </trkpt>
      <trkpt lat="44.12698" lon="5.02528">
        <ele>284.6</ele>
        <time>2022-01-16T12:25:19Z</time>
      </trkpt>
      <trkpt lat="44.12698" lon="5.02525">
        <ele>284.6</ele>
        <time>2022-01-16T12:25:33Z</time>
      </trkpt>
      <trkpt lat="44.12701" lon="5.02517">
        <ele>283.3</ele>
        <time>2022-01-16T12:25:41Z</time>
      </trkpt>
      <trkpt lat="44.12702" lon="5.02516">
        <ele>282.9</ele>
        <time>2022-01-16T12:25:42Z</time>
      </trkpt>
      <trkpt lat="44.12703" lon="5.02516">
        <ele>282.5</ele>
        <time>2022-01-16T12:25:43Z</time>
      </trkpt>
      <trkpt lat="44.12703" lon="5.02514">
        <ele>282.5</ele>
        <time>2022-01-16T12:25:44Z</time>
      </trkpt>
      <trkpt lat="44.12702" lon="5.02501">
        <ele>282.7</ele>
        <time>2022-01-16T12:25:58Z</time>
      </trkpt>
      <trkpt lat="44.12701" lon="5.02491">
        <ele>282.7</ele>
        <time>2022-01-16T12:26:13Z</time>
      </trkpt>
      <trkpt lat="44.12704" lon="5.02478">
        <ele>280.5</ele>
        <time>2022-01-16T12:26:30Z</time>
      </trkpt>
      <trkpt lat="44.12707" lon="5.02466">
        <ele>278.5</ele>
        <time>2022-01-16T12:26:42Z</time>
      </trkpt>
      <trkpt lat="44.12707" lon="5.02463">
        <ele>278.4</ele>
        <time>2022-01-16T12:26:44Z</time>
      </trkpt>
      <trkpt lat="44.12707" lon="5.0246">
        <ele>278.3</ele>
        <time>2022-01-16T12:26:47Z</time>
      </trkpt>
      <trkpt lat="44.12707" lon="5.02459">
        <ele>278.2</ele>
        <time>2022-01-16T12:26:48Z</time>
      </trkpt>
      <trkpt lat="44.12709" lon="5.02439">
        <ele>276.4</ele>
        <time>2022-01-16T12:27:07Z</time>
      </trkpt>
      <trkpt lat="44.12711" lon="5.02431">
        <ele>275.1</ele>
        <time>2022-01-16T12:27:17Z</time>
      </trkpt>
      <trkpt lat="44.12711" lon="5.02419">
        <ele>274.7</ele>
        <time>2022-01-16T12:27:26Z</time>
      </trkpt>
      <trkpt lat="44.12715" lon="5.02411">
        <ele>272.6</ele>
        <time>2022-01-16T12:27:40Z</time>
      </trkpt>
      <trkpt lat="44.12716" lon="5.0242">
        <ele>272.2</ele>
        <time>2022-01-16T12:27:52Z</time>
      </trkpt>
      <trkpt lat="44.12713" lon="5.0242">
        <ele>273.7</ele>
        <time>2022-01-16T12:28:10Z</time>
      </trkpt>
      <trkpt lat="44.12713" lon="5.02426">
        <ele>273.9</ele>
        <time>2022-01-16T12:28:29Z</time>
      </trkpt>
      <trkpt lat="44.12713" lon="5.02429">
        <ele>273.9</ele>
        <time>2022-01-16T12:28:45Z</time>
      </trkpt>
      <trkpt lat="44.12714" lon="5.02436">
        <ele>273.6</ele>
        <time>2022-01-16T12:29:02Z</time>
      </trkpt>
      <trkpt lat="44.12714" lon="5.02437">
        <ele>273.6</ele>
        <time>2022-01-16T12:29:03Z</time>
      </trkpt>
      <trkpt lat="44.12716" lon="5.02448">
        <ele>272.8</ele>
        <time>2022-01-16T12:29:15Z</time>
      </trkpt>
      <trkpt lat="44.12718" lon="5.02435">
        <ele>271.3</ele>
        <time>2022-01-16T12:29:28Z</time>
      </trkpt>
      <trkpt lat="44.12721" lon="5.02427">
        <ele>269.6</ele>
        <time>2022-01-16T12:29:43Z</time>
      </trkpt>
      <trkpt lat="44.1272" lon="5.02439">
        <ele>270.2</ele>
        <time>2022-01-16T12:29:54Z</time>
      </trkpt>
      <trkpt lat="44.12723" lon="5.02456">
        <ele>269.6</ele>
        <time>2022-01-16T12:30:06Z</time>
      </trkpt>
      <trkpt lat="44.12727" lon="5.02465">
        <ele>269</ele>
        <time>2022-01-16T12:30:13Z</time>
      </trkpt>
      <trkpt lat="44.12728" lon="5.02465">
        <ele>268.7</ele>
        <time>2022-01-16T12:30:14Z</time>
      </trkpt>
      <trkpt lat="44.12734" lon="5.02472">
        <ele>267.2</ele>
        <time>2022-01-16T12:30:23Z</time>
      </trkpt>
      <trkpt lat="44.12742" lon="5.02481">
        <ele>265.1</ele>
        <time>2022-01-16T12:30:33Z</time>
      </trkpt>
      <trkpt lat="44.12742" lon="5.02483">
        <ele>265.2</ele>
        <time>2022-01-16T12:30:35Z</time>
      </trkpt>
      <trkpt lat="44.12749" lon="5.02497">
        <ele>263.3</ele>
        <time>2022-01-16T12:30:47Z</time>
      </trkpt>
      <trkpt lat="44.12753" lon="5.02506">
        <ele>262.8</ele>
        <time>2022-01-16T12:30:54Z</time>
      </trkpt>
      <trkpt lat="44.12753" lon="5.02508">
        <ele>262.8</ele>
        <time>2022-01-16T12:30:55Z</time>
      </trkpt>
      <trkpt lat="44.12753" lon="5.0251">
        <ele>262.9</ele>
        <time>2022-01-16T12:30:56Z</time>
      </trkpt>
      <trkpt lat="44.12755" lon="5.02527">
        <ele>263.1</ele>
        <time>2022-01-16T12:31:08Z</time>
      </trkpt>
      <trkpt lat="44.12763" lon="5.02533">
        <ele>261.4</ele>
        <time>2022-01-16T12:31:20Z</time>
      </trkpt>
      <trkpt lat="44.1276" lon="5.02532">
        <ele>262</ele>
        <time>2022-01-16T12:31:32Z</time>
      </trkpt>
      <trkpt lat="44.12765" lon="5.02533">
        <ele>261</ele>
        <time>2022-01-16T12:31:47Z</time>
      </trkpt>
      <trkpt lat="44.12774" lon="5.02531">
        <ele>259.5</ele>
        <time>2022-01-16T12:32:00Z</time>
      </trkpt>
      <trkpt lat="44.12786" lon="5.02535">
        <ele>257.7</ele>
        <time>2022-01-16T12:32:18Z</time>
      </trkpt>
      <trkpt lat="44.12792" lon="5.02535">
        <ele>257.1</ele>
        <time>2022-01-16T12:32:30Z</time>
      </trkpt>
      <trkpt lat="44.12793" lon="5.02533">
        <ele>257.1</ele>
        <time>2022-01-16T12:32:51Z</time>
      </trkpt>
      <trkpt lat="44.12793" lon="5.0253">
        <ele>257.2</ele>
        <time>2022-01-16T12:33:14Z</time>
      </trkpt>
      <trkpt lat="44.12797" lon="5.02534">
        <ele>256.6</ele>
        <time>2022-01-16T12:33:41Z</time>
      </trkpt>
      <trkpt lat="44.12808" lon="5.02536">
        <ele>255.6</ele>
        <time>2022-01-16T12:33:56Z</time>
      </trkpt>
      <trkpt lat="44.12821" lon="5.02539">
        <ele>255</ele>
        <time>2022-01-16T12:34:10Z</time>
      </trkpt>
      <trkpt lat="44.12835" lon="5.02542">
        <ele>254.5</ele>
        <time>2022-01-16T12:34:27Z</time>
      </trkpt>
      <trkpt lat="44.12854" lon="5.02545">
        <ele>254.8</ele>
        <time>2022-01-16T12:34:48Z</time>
      </trkpt>
      <trkpt lat="44.12873" lon="5.02547">
        <ele>256.2</ele>
        <time>2022-01-16T12:35:07Z</time>
      </trkpt>
      <trkpt lat="44.12875" lon="5.02545">
        <ele>256.3</ele>
        <time>2022-01-16T12:35:21Z</time>
      </trkpt>
      <trkpt lat="44.12881" lon="5.02548">
        <ele>257</ele>
        <time>2022-01-16T12:35:43Z</time>
      </trkpt>
      <trkpt lat="44.129" lon="5.02551">
        <ele>259.5</ele>
        <time>2022-01-16T12:36:02Z</time>
      </trkpt>
      <trkpt lat="44.12916" lon="5.02552">
        <ele>261.9</ele>
        <time>2022-01-16T12:36:20Z</time>
      </trkpt>
      <trkpt lat="44.12921" lon="5.02552">
        <ele>263.2</ele>
        <time>2022-01-16T12:36:33Z</time>
      </trkpt>
      <trkpt lat="44.1293" lon="5.02544">
        <ele>265.4</ele>
        <time>2022-01-16T12:36:47Z</time>
      </trkpt>
      <trkpt lat="44.12933" lon="5.02543">
        <ele>266.2</ele>
        <time>2022-01-16T12:37:02Z</time>
      </trkpt>
      <trkpt lat="44.12939" lon="5.02534">
        <ele>267.2</ele>
        <time>2022-01-16T12:37:14Z</time>
      </trkpt>
      <trkpt lat="44.12944" lon="5.0252">
        <ele>267.1</ele>
        <time>2022-01-16T12:37:32Z</time>
      </trkpt>
      <trkpt lat="44.12948" lon="5.02504">
        <ele>266.8</ele>
        <time>2022-01-16T12:37:45Z</time>
      </trkpt>
      <trkpt lat="44.12955" lon="5.02486">
        <ele>268.3</ele>
        <time>2022-01-16T12:38:01Z</time>
      </trkpt>
      <trkpt lat="44.12956" lon="5.02479">
        <ele>268.2</ele>
        <time>2022-01-16T12:38:13Z</time>
      </trkpt>
      <trkpt lat="44.12958" lon="5.02465">
        <ele>267.7</ele>
        <time>2022-01-16T12:38:29Z</time>
      </trkpt>
      <trkpt lat="44.12966" lon="5.02446">
        <ele>268.4</ele>
        <time>2022-01-16T12:38:47Z</time>
      </trkpt>
      <trkpt lat="44.12972" lon="5.0243">
        <ele>268.4</ele>
        <time>2022-01-16T12:39:05Z</time>
      </trkpt>
      <trkpt lat="44.12978" lon="5.02418">
        <ele>268.4</ele>
        <time>2022-01-16T12:39:18Z</time>
      </trkpt>
      <trkpt lat="44.12985" lon="5.02407">
        <ele>269.1</ele>
        <time>2022-01-16T12:39:31Z</time>
      </trkpt>
      <trkpt lat="44.12993" lon="5.02393">
        <ele>269.8</ele>
        <time>2022-01-16T12:39:47Z</time>
      </trkpt>
      <trkpt lat="44.12997" lon="5.0238">
        <ele>270</ele>
        <time>2022-01-16T12:40:04Z</time>
      </trkpt>
      <trkpt lat="44.13002" lon="5.02363">
        <ele>269.9</ele>
        <time>2022-01-16T12:40:19Z</time>
      </trkpt>
      <trkpt lat="44.13005" lon="5.02355">
        <ele>269.2</ele>
        <time>2022-01-16T12:40:35Z</time>
      </trkpt>
      <trkpt lat="44.13005" lon="5.02346">
        <ele>268.5</ele>
        <time>2022-01-16T12:40:51Z</time>
      </trkpt>
      <trkpt lat="44.13005" lon="5.02344">
        <ele>268.3</ele>
        <time>2022-01-16T12:41:18Z</time>
      </trkpt>
      <trkpt lat="44.13007" lon="5.02344">
        <ele>268.1</ele>
        <time>2022-01-16T12:41:53Z</time>
      </trkpt>
      <trkpt lat="44.1301" lon="5.02349">
        <ele>268.3</ele>
        <time>2022-01-16T12:42:15Z</time>
      </trkpt>
      <trkpt lat="44.13016" lon="5.02358">
        <ele>268.6</ele>
        <time>2022-01-16T12:42:29Z</time>
      </trkpt>
      <trkpt lat="44.13019" lon="5.02363">
        <ele>268.7</ele>
        <time>2022-01-16T12:42:45Z</time>
      </trkpt>
      <trkpt lat="44.13029" lon="5.02368">
        <ele>268.1</ele>
        <time>2022-01-16T12:42:59Z</time>
      </trkpt>
      <trkpt lat="44.13044" lon="5.02369">
        <ele>267</ele>
        <time>2022-01-16T12:43:16Z</time>
      </trkpt>
      <trkpt lat="44.13062" lon="5.02362">
        <ele>266</ele>
        <time>2022-01-16T12:43:35Z</time>
      </trkpt>
      <trkpt lat="44.13075" lon="5.02342">
        <ele>265.6</ele>
        <time>2022-01-16T12:43:54Z</time>
      </trkpt>
      <trkpt lat="44.13089" lon="5.02322">
        <ele>265.7</ele>
        <time>2022-01-16T12:44:13Z</time>
      </trkpt>
      <trkpt lat="44.13092" lon="5.02322">
        <ele>265.9</ele>
        <time>2022-01-16T12:44:17Z</time>
      </trkpt>
      <trkpt lat="44.13104" lon="5.0233">
        <ele>267.9</ele>
        <time>2022-01-16T12:44:32Z</time>
      </trkpt>
      <trkpt lat="44.13114" lon="5.02338">
        <ele>269.7</ele>
        <time>2022-01-16T12:44:45Z</time>
      </trkpt>
      <trkpt lat="44.13124" lon="5.02348">
        <ele>271.7</ele>
        <time>2022-01-16T12:44:59Z</time>
      </trkpt>
      <trkpt lat="44.13132" lon="5.02356">
        <ele>273.5</ele>
        <time>2022-01-16T12:45:15Z</time>
      </trkpt>
      <trkpt lat="44.13145" lon="5.02355">
        <ele>275.7</ele>
        <time>2022-01-16T12:45:32Z</time>
      </trkpt>
      <trkpt lat="44.13154" lon="5.02346">
        <ele>276.9</ele>
        <time>2022-01-16T12:45:46Z</time>
      </trkpt>
      <trkpt lat="44.13165" lon="5.02338">
        <ele>278.9</ele>
        <time>2022-01-16T12:46:01Z</time>
      </trkpt>
      <trkpt lat="44.13177" lon="5.02333">
        <ele>281.9</ele>
        <time>2022-01-16T12:46:16Z</time>
      </trkpt>
      <trkpt lat="44.13181" lon="5.02329">
        <ele>282.1</ele>
        <time>2022-01-16T12:46:32Z</time>
      </trkpt>
      <trkpt lat="44.13187" lon="5.02326">
        <ele>283.1</ele>
        <time>2022-01-16T12:46:46Z</time>
      </trkpt>
      <trkpt lat="44.13197" lon="5.02318">
        <ele>283.9</ele>
        <time>2022-01-16T12:47:04Z</time>
      </trkpt>
      <trkpt lat="44.13216" lon="5.02309">
        <ele>287.1</ele>
        <time>2022-01-16T12:47:26Z</time>
      </trkpt>
      <trkpt lat="44.13229" lon="5.02298">
        <ele>288.5</ele>
        <time>2022-01-16T12:47:46Z</time>
      </trkpt>
      <trkpt lat="44.1324" lon="5.02293">
        <ele>290.6</ele>
        <time>2022-01-16T12:48:02Z</time>
      </trkpt>
      <trkpt lat="44.13247" lon="5.02289">
        <ele>291.6</ele>
        <time>2022-01-16T12:48:15Z</time>
      </trkpt>
      <trkpt lat="44.13261" lon="5.02276">
        <ele>292.6</ele>
        <time>2022-01-16T12:48:33Z</time>
      </trkpt>
      <trkpt lat="44.13268" lon="5.02266">
        <ele>293.9</ele>
        <time>2022-01-16T12:48:44Z</time>
      </trkpt>
      <trkpt lat="44.13272" lon="5.02257">
        <ele>294.9</ele>
        <time>2022-01-16T12:48:56Z</time>
      </trkpt>
      <trkpt lat="44.13279" lon="5.02243">
        <ele>297</ele>
        <time>2022-01-16T12:49:10Z</time>
      </trkpt>
      <trkpt lat="44.13283" lon="5.02232">
        <ele>297.5</ele>
        <time>2022-01-16T12:49:24Z</time>
      </trkpt>
      <trkpt lat="44.13284" lon="5.0223">
        <ele>297.6</ele>
        <time>2022-01-16T12:49:29Z</time>
      </trkpt>
      <trkpt lat="44.1329" lon="5.02219">
        <ele>298</ele>
        <time>2022-01-16T12:49:42Z</time>
      </trkpt>
      <trkpt lat="44.13294" lon="5.02214">
        <ele>298.1</ele>
        <time>2022-01-16T12:49:57Z</time>
      </trkpt>
      <trkpt lat="44.13302" lon="5.02209">
        <ele>299.2</ele>
        <time>2022-01-16T12:50:13Z</time>
      </trkpt>
      <trkpt lat="44.13301" lon="5.0221">
        <ele>299.1</ele>
        <time>2022-01-16T12:50:32Z</time>
      </trkpt>
      <trkpt lat="44.13302" lon="5.02209">
        <ele>299.2</ele>
        <time>2022-01-16T12:50:52Z</time>
      </trkpt>
      <trkpt lat="44.13305" lon="5.02211">
        <ele>300.2</ele>
        <time>2022-01-16T12:51:21Z</time>
      </trkpt>
      <trkpt lat="44.13306" lon="5.0221">
        <ele>300.2</ele>
        <time>2022-01-16T12:51:38Z</time>
      </trkpt>
      <trkpt lat="44.1331" lon="5.02208">
        <ele>299.9</ele>
        <time>2022-01-16T12:51:51Z</time>
      </trkpt>
      <trkpt lat="44.13319" lon="5.02204">
        <ele>299.2</ele>
        <time>2022-01-16T12:52:07Z</time>
      </trkpt>
      <trkpt lat="44.13329" lon="5.02204">
        <ele>299.1</ele>
        <time>2022-01-16T12:52:23Z</time>
      </trkpt>
      <trkpt lat="44.13348" lon="5.02205">
        <ele>296.4</ele>
        <time>2022-01-16T12:52:44Z</time>
      </trkpt>
      <trkpt lat="44.13357" lon="5.02218">
        <ele>295.8</ele>
        <time>2022-01-16T12:52:59Z</time>
      </trkpt>
      <trkpt lat="44.13363" lon="5.02229">
        <ele>293.7</ele>
        <time>2022-01-16T12:53:14Z</time>
      </trkpt>
      <trkpt lat="44.13369" lon="5.02238">
        <ele>290.8</ele>
        <time>2022-01-16T12:53:30Z</time>
      </trkpt>
      <trkpt lat="44.13381" lon="5.02245">
        <ele>285.9</ele>
        <time>2022-01-16T12:53:45Z</time>
      </trkpt>
      <trkpt lat="44.13393" lon="5.02234">
        <ele>282.4</ele>
        <time>2022-01-16T12:53:59Z</time>
      </trkpt>
      <trkpt lat="44.13404" lon="5.0223">
        <ele>280.8</ele>
        <time>2022-01-16T12:54:15Z</time>
      </trkpt>
      <trkpt lat="44.13405" lon="5.02231">
        <ele>280.7</ele>
        <time>2022-01-16T12:54:30Z</time>
      </trkpt>
      <trkpt lat="44.13409" lon="5.02234">
        <ele>280.1</ele>
        <time>2022-01-16T12:54:56Z</time>
      </trkpt>
      <trkpt lat="44.13411" lon="5.02236">
        <ele>279.8</ele>
        <time>2022-01-16T12:54:58Z</time>
      </trkpt>
      <trkpt lat="44.13426" lon="5.02242">
        <ele>279.8</ele>
        <time>2022-01-16T12:55:14Z</time>
      </trkpt>
      <trkpt lat="44.13431" lon="5.02237">
        <ele>280.1</ele>
        <time>2022-01-16T12:55:24Z</time>
      </trkpt>
      <trkpt lat="44.13435" lon="5.02235">
        <ele>280.3</ele>
        <time>2022-01-16T12:55:28Z</time>
      </trkpt>
      <trkpt lat="44.1345" lon="5.02232">
        <ele>281.9</ele>
        <time>2022-01-16T12:55:44Z</time>
      </trkpt>
      <trkpt lat="44.1346" lon="5.02232">
        <ele>284.1</ele>
        <time>2022-01-16T12:55:57Z</time>
      </trkpt>
      <trkpt lat="44.13471" lon="5.0223">
        <ele>286.3</ele>
        <time>2022-01-16T12:56:11Z</time>
      </trkpt>
      <trkpt lat="44.13484" lon="5.02223">
        <ele>287.3</ele>
        <time>2022-01-16T12:56:27Z</time>
      </trkpt>
      <trkpt lat="44.13487" lon="5.02221">
        <ele>287.4</ele>
        <time>2022-01-16T12:56:31Z</time>
      </trkpt>
      <trkpt lat="44.13497" lon="5.02215">
        <ele>287.8</ele>
        <time>2022-01-16T12:56:43Z</time>
      </trkpt>
      <trkpt lat="44.13509" lon="5.02208">
        <ele>288</ele>
        <time>2022-01-16T12:56:59Z</time>
      </trkpt>
      <trkpt lat="44.1352" lon="5.02203">
        <ele>288.4</ele>
        <time>2022-01-16T12:57:13Z</time>
      </trkpt>
      <trkpt lat="44.1353" lon="5.02201">
        <ele>288.8</ele>
        <time>2022-01-16T12:57:27Z</time>
      </trkpt>
      <trkpt lat="44.13543" lon="5.02201">
        <ele>287.8</ele>
        <time>2022-01-16T12:57:44Z</time>
      </trkpt>
      <trkpt lat="44.13561" lon="5.02201">
        <ele>286.2</ele>
        <time>2022-01-16T12:58:06Z</time>
      </trkpt>
      <trkpt lat="44.13575" lon="5.02201">
        <ele>284.7</ele>
        <time>2022-01-16T12:58:22Z</time>
      </trkpt>
      <trkpt lat="44.13596" lon="5.022">
        <ele>282.5</ele>
        <time>2022-01-16T12:58:45Z</time>
      </trkpt>
      <trkpt lat="44.13601" lon="5.022">
        <ele>282</ele>
        <time>2022-01-16T12:58:50Z</time>
      </trkpt>
      <trkpt lat="44.13622" lon="5.02201">
        <ele>280.2</ele>
        <time>2022-01-16T12:59:11Z</time>
      </trkpt>
      <trkpt lat="44.13639" lon="5.02201">
        <ele>279</ele>
        <time>2022-01-16T12:59:27Z</time>
      </trkpt>
      <trkpt lat="44.13654" lon="5.02201">
        <ele>278.9</ele>
        <time>2022-01-16T12:59:42Z</time>
      </trkpt>
      <trkpt lat="44.13669" lon="5.022">
        <ele>278.8</ele>
        <time>2022-01-16T12:59:57Z</time>
      </trkpt>
      <trkpt lat="44.13684" lon="5.02202">
        <ele>278.9</ele>
        <time>2022-01-16T13:00:11Z</time>
      </trkpt>
      <trkpt lat="44.137" lon="5.02209">
        <ele>279.4</ele>
        <time>2022-01-16T13:00:28Z</time>
      </trkpt>
      <trkpt lat="44.13707" lon="5.02216">
        <ele>279.9</ele>
        <time>2022-01-16T13:00:41Z</time>
      </trkpt>
      <trkpt lat="44.13708" lon="5.02222">
        <ele>280</ele>
        <time>2022-01-16T13:00:55Z</time>
      </trkpt>
      <trkpt lat="44.13714" lon="5.02229">
        <ele>280</ele>
        <time>2022-01-16T13:01:10Z</time>
      </trkpt>
      <trkpt lat="44.13722" lon="5.02229">
        <ele>280.5</ele>
        <time>2022-01-16T13:01:24Z</time>
      </trkpt>
      <trkpt lat="44.13728" lon="5.02226">
        <ele>281.2</ele>
        <time>2022-01-16T13:01:42Z</time>
      </trkpt>
      <trkpt lat="44.13738" lon="5.02222">
        <ele>282.1</ele>
        <time>2022-01-16T13:01:53Z</time>
      </trkpt>
      <trkpt lat="44.13753" lon="5.02218">
        <ele>283.2</ele>
        <time>2022-01-16T13:02:09Z</time>
      </trkpt>
      <trkpt lat="44.13768" lon="5.02213">
        <ele>284.5</ele>
        <time>2022-01-16T13:02:25Z</time>
      </trkpt>
      <trkpt lat="44.13785" lon="5.02208">
        <ele>286.3</ele>
        <time>2022-01-16T13:02:45Z</time>
      </trkpt>
      <trkpt lat="44.13796" lon="5.02204">
        <ele>287.6</ele>
        <time>2022-01-16T13:02:59Z</time>
      </trkpt>
      <trkpt lat="44.13808" lon="5.022">
        <ele>289.1</ele>
        <time>2022-01-16T13:03:14Z</time>
      </trkpt>
      <trkpt lat="44.1382" lon="5.02195">
        <ele>290.5</ele>
        <time>2022-01-16T13:03:31Z</time>
      </trkpt>
      <trkpt lat="44.13831" lon="5.02192">
        <ele>291.7</ele>
        <time>2022-01-16T13:03:47Z</time>
      </trkpt>
      <trkpt lat="44.13842" lon="5.02188">
        <ele>293.2</ele>
        <time>2022-01-16T13:04:03Z</time>
      </trkpt>
      <trkpt lat="44.13854" lon="5.02183">
        <ele>295</ele>
        <time>2022-01-16T13:04:19Z</time>
      </trkpt>
      <trkpt lat="44.13866" lon="5.02181">
        <ele>296.5</ele>
        <time>2022-01-16T13:04:33Z</time>
      </trkpt>
      <trkpt lat="44.13875" lon="5.02178">
        <ele>297.5</ele>
        <time>2022-01-16T13:04:48Z</time>
      </trkpt>
      <trkpt lat="44.13876" lon="5.02172">
        <ele>297.6</ele>
        <time>2022-01-16T13:04:59Z</time>
      </trkpt>
      <trkpt lat="44.13876" lon="5.0217">
        <ele>297.6</ele>
        <time>2022-01-16T13:05:21Z</time>
      </trkpt>
      <trkpt lat="44.13876" lon="5.02167">
        <ele>297.6</ele>
        <time>2022-01-16T13:06:05Z</time>
      </trkpt>
      <trkpt lat="44.1388" lon="5.02151">
        <ele>297.1</ele>
        <time>2022-01-16T13:06:19Z</time>
      </trkpt>
      <trkpt lat="44.13884" lon="5.02135">
        <ele>296.3</ele>
        <time>2022-01-16T13:06:32Z</time>
      </trkpt>
      <trkpt lat="44.13892" lon="5.02111">
        <ele>295.3</ele>
        <time>2022-01-16T13:06:51Z</time>
      </trkpt>
      <trkpt lat="44.13901" lon="5.02089">
        <ele>294.4</ele>
        <time>2022-01-16T13:07:09Z</time>
      </trkpt>
      <trkpt lat="44.13908" lon="5.02071">
        <ele>293.2</ele>
        <time>2022-01-16T13:07:25Z</time>
      </trkpt>
      <trkpt lat="44.13924" lon="5.02056">
        <ele>293.6</ele>
        <time>2022-01-16T13:07:41Z</time>
      </trkpt>
      <trkpt lat="44.13939" lon="5.02044">
        <ele>292.9</ele>
        <time>2022-01-16T13:07:57Z</time>
      </trkpt>
      <trkpt lat="44.13947" lon="5.02042">
        <ele>292.9</ele>
        <time>2022-01-16T13:08:06Z</time>
      </trkpt>
      <trkpt lat="44.13948" lon="5.02042">
        <ele>292.8</ele>
        <time>2022-01-16T13:08:07Z</time>
      </trkpt>
      <trkpt lat="44.13949" lon="5.02042">
        <ele>292.7</ele>
        <time>2022-01-16T13:08:08Z</time>
      </trkpt>
      <trkpt lat="44.13962" lon="5.02052">
        <ele>293.7</ele>
        <time>2022-01-16T13:08:22Z</time>
      </trkpt>
      <trkpt lat="44.13976" lon="5.02062">
        <ele>295</ele>
        <time>2022-01-16T13:08:38Z</time>
      </trkpt>
      <trkpt lat="44.13989" lon="5.02071">
        <ele>296.2</ele>
        <time>2022-01-16T13:08:54Z</time>
      </trkpt>
      <trkpt lat="44.13999" lon="5.0208">
        <ele>298.2</ele>
        <time>2022-01-16T13:09:07Z</time>
      </trkpt>
      <trkpt lat="44.14009" lon="5.0208">
        <ele>298.8</ele>
        <time>2022-01-16T13:09:19Z</time>
      </trkpt>
      <trkpt lat="44.14025" lon="5.02072">
        <ele>298.3</ele>
        <time>2022-01-16T13:09:35Z</time>
      </trkpt>
      <trkpt lat="44.14026" lon="5.02071">
        <ele>298.2</ele>
        <time>2022-01-16T13:09:36Z</time>
      </trkpt>
      <trkpt lat="44.14036" lon="5.02059">
        <ele>297.1</ele>
        <time>2022-01-16T13:09:50Z</time>
      </trkpt>
      <trkpt lat="44.14036" lon="5.02047">
        <ele>296.9</ele>
        <time>2022-01-16T13:10:01Z</time>
      </trkpt>
      <trkpt lat="44.14029" lon="5.02028">
        <ele>297.1</ele>
        <time>2022-01-16T13:10:15Z</time>
      </trkpt>
      <trkpt lat="44.14027" lon="5.02028">
        <ele>296.9</ele>
        <time>2022-01-16T13:10:16Z</time>
      </trkpt>
      <trkpt lat="44.14015" lon="5.02026">
        <ele>295.9</ele>
        <time>2022-01-16T13:10:28Z</time>
      </trkpt>
      <trkpt lat="44.14002" lon="5.02019">
        <ele>295.5</ele>
        <time>2022-01-16T13:10:41Z</time>
      </trkpt>
      <trkpt lat="44.14002" lon="5.02018">
        <ele>295.6</ele>
        <time>2022-01-16T13:10:42Z</time>
      </trkpt>
      <trkpt lat="44.14001" lon="5.02017">
        <ele>295.7</ele>
        <time>2022-01-16T13:10:43Z</time>
      </trkpt>
      <trkpt lat="44.13988" lon="5.02004">
        <ele>294.1</ele>
        <time>2022-01-16T13:10:58Z</time>
      </trkpt>
      <trkpt lat="44.13985" lon="5.01999">
        <ele>293.8</ele>
        <time>2022-01-16T13:11:02Z</time>
      </trkpt>
      <trkpt lat="44.13985" lon="5.01998">
        <ele>293.9</ele>
        <time>2022-01-16T13:11:03Z</time>
      </trkpt>
      <trkpt lat="44.13974" lon="5.01987">
        <ele>292.4</ele>
        <time>2022-01-16T13:11:18Z</time>
      </trkpt>
      <trkpt lat="44.13966" lon="5.01973">
        <ele>292.3</ele>
        <time>2022-01-16T13:11:30Z</time>
      </trkpt>
      <trkpt lat="44.13958" lon="5.01964">
        <ele>291.9</ele>
        <time>2022-01-16T13:11:42Z</time>
      </trkpt>
      <trkpt lat="44.13946" lon="5.01953">
        <ele>291.5</ele>
        <time>2022-01-16T13:11:58Z</time>
      </trkpt>
      <trkpt lat="44.13927" lon="5.01945">
        <ele>291.6</ele>
        <time>2022-01-16T13:12:15Z</time>
      </trkpt>
      <trkpt lat="44.13926" lon="5.01944">
        <ele>291.8</ele>
        <time>2022-01-16T13:12:16Z</time>
      </trkpt>
      <trkpt lat="44.13924" lon="5.01944">
        <ele>291.6</ele>
        <time>2022-01-16T13:12:17Z</time>
      </trkpt>
      <trkpt lat="44.13923" lon="5.01944">
        <ele>291.5</ele>
        <time>2022-01-16T13:12:18Z</time>
      </trkpt>
      <trkpt lat="44.13922" lon="5.01944">
        <ele>291.5</ele>
        <time>2022-01-16T13:12:19Z</time>
      </trkpt>
      <trkpt lat="44.13908" lon="5.01945">
        <ele>290.8</ele>
        <time>2022-01-16T13:12:34Z</time>
      </trkpt>
      <trkpt lat="44.13892" lon="5.01945">
        <ele>290.8</ele>
        <time>2022-01-16T13:12:51Z</time>
      </trkpt>
      <trkpt lat="44.13887" lon="5.01941">
        <ele>291.6</ele>
        <time>2022-01-16T13:13:08Z</time>
      </trkpt>
      <trkpt lat="44.13889" lon="5.01943">
        <ele>291.3</ele>
        <time>2022-01-16T13:14:02Z</time>
      </trkpt>
      <trkpt lat="44.13888" lon="5.0194">
        <ele>291.9</ele>
        <time>2022-01-16T13:14:45Z</time>
      </trkpt>
      <trkpt lat="44.13886" lon="5.01938">
        <ele>292.1</ele>
        <time>2022-01-16T13:15:09Z</time>
      </trkpt>
      <trkpt lat="44.13887" lon="5.01938">
        <ele>292.2</ele>
        <time>2022-01-16T13:15:21Z</time>
      </trkpt>
      <trkpt lat="44.13888" lon="5.01938">
        <ele>292.3</ele>
        <time>2022-01-16T13:16:32Z</time>
      </trkpt>
      <trkpt lat="44.13888" lon="5.01939">
        <ele>292.1</ele>
        <time>2022-01-16T13:16:56Z</time>
      </trkpt>
      <trkpt lat="44.13888" lon="5.01939">
        <ele>292.1</ele>
        <time>2022-01-16T13:17:39Z</time>
      </trkpt>
      <trkpt lat="44.13888" lon="5.01939">
        <ele>292.1</ele>
        <time>2022-01-16T13:18:05Z</time>
      </trkpt>
      <trkpt lat="44.13887" lon="5.01939">
        <ele>292</ele>
        <time>2022-01-16T13:18:45Z</time>
      </trkpt>
      <trkpt lat="44.13883" lon="5.01937">
        <ele>292.1</ele>
        <time>2022-01-16T13:19:03Z</time>
      </trkpt>
      <trkpt lat="44.13876" lon="5.01936">
        <ele>291.7</ele>
        <time>2022-01-16T13:19:18Z</time>
      </trkpt>
      <trkpt lat="44.13859" lon="5.0194">
        <ele>289.2</ele>
        <time>2022-01-16T13:19:37Z</time>
      </trkpt>
      <trkpt lat="44.13835" lon="5.01945">
        <ele>286.9</ele>
        <time>2022-01-16T13:20:03Z</time>
      </trkpt>
      <trkpt lat="44.13816" lon="5.01948">
        <ele>286.6</ele>
        <time>2022-01-16T13:20:21Z</time>
      </trkpt>
      <trkpt lat="44.13794" lon="5.01953">
        <ele>285.8</ele>
        <time>2022-01-16T13:20:42Z</time>
      </trkpt>
      <trkpt lat="44.13776" lon="5.01959">
        <ele>284.3</ele>
        <time>2022-01-16T13:21:00Z</time>
      </trkpt>
      <trkpt lat="44.13772" lon="5.01959">
        <ele>284.4</ele>
        <time>2022-01-16T13:21:05Z</time>
      </trkpt>
      <trkpt lat="44.13771" lon="5.01959">
        <ele>284.4</ele>
        <time>2022-01-16T13:21:06Z</time>
      </trkpt>
      <trkpt lat="44.13767" lon="5.0196">
        <ele>284.2</ele>
        <time>2022-01-16T13:21:09Z</time>
      </trkpt>
      <trkpt lat="44.13766" lon="5.0196">
        <ele>284.2</ele>
        <time>2022-01-16T13:21:10Z</time>
      </trkpt>
      <trkpt lat="44.13749" lon="5.01963">
        <ele>283.7</ele>
        <time>2022-01-16T13:21:27Z</time>
      </trkpt>
      <trkpt lat="44.13734" lon="5.01971">
        <ele>281.9</ele>
        <time>2022-01-16T13:21:43Z</time>
      </trkpt>
      <trkpt lat="44.13717" lon="5.01976">
        <ele>280.5</ele>
        <time>2022-01-16T13:21:59Z</time>
      </trkpt>
      <trkpt lat="44.13697" lon="5.01981">
        <ele>277.9</ele>
        <time>2022-01-16T13:22:18Z</time>
      </trkpt>
      <trkpt lat="44.1368" lon="5.01976">
        <ele>277.6</ele>
        <time>2022-01-16T13:22:36Z</time>
      </trkpt>
      <trkpt lat="44.13666" lon="5.01956">
        <ele>276.7</ele>
        <time>2022-01-16T13:22:56Z</time>
      </trkpt>
      <trkpt lat="44.13664" lon="5.01947">
        <ele>275.9</ele>
        <time>2022-01-16T13:23:03Z</time>
      </trkpt>
      <trkpt lat="44.13659" lon="5.01917">
        <ele>274</ele>
        <time>2022-01-16T13:23:24Z</time>
      </trkpt>
      <trkpt lat="44.13649" lon="5.01893">
        <ele>272.8</ele>
        <time>2022-01-16T13:23:44Z</time>
      </trkpt>
      <trkpt lat="44.13647" lon="5.01873">
        <ele>272</ele>
        <time>2022-01-16T13:24:00Z</time>
      </trkpt>
      <trkpt lat="44.13654" lon="5.0186">
        <ele>272.5</ele>
        <time>2022-01-16T13:24:15Z</time>
      </trkpt>
      <trkpt lat="44.13658" lon="5.01853">
        <ele>271.6</ele>
        <time>2022-01-16T13:24:25Z</time>
      </trkpt>
      <trkpt lat="44.13676" lon="5.01839">
        <ele>270.6</ele>
        <time>2022-01-16T13:24:42Z</time>
      </trkpt>
      <trkpt lat="44.1369" lon="5.01822">
        <ele>269.3</ele>
        <time>2022-01-16T13:25:00Z</time>
      </trkpt>
      <trkpt lat="44.13696" lon="5.01798">
        <ele>266.7</ele>
        <time>2022-01-16T13:25:17Z</time>
      </trkpt>
      <trkpt lat="44.13701" lon="5.01778">
        <ele>265.7</ele>
        <time>2022-01-16T13:25:32Z</time>
      </trkpt>
      <trkpt lat="44.13704" lon="5.01769">
        <ele>264.1</ele>
        <time>2022-01-16T13:25:40Z</time>
      </trkpt>
      <trkpt lat="44.13715" lon="5.01755">
        <ele>262.8</ele>
        <time>2022-01-16T13:25:53Z</time>
      </trkpt>
      <trkpt lat="44.13727" lon="5.01742">
        <ele>261.2</ele>
        <time>2022-01-16T13:26:07Z</time>
      </trkpt>
      <trkpt lat="44.13736" lon="5.01737">
        <ele>261</ele>
        <time>2022-01-16T13:26:18Z</time>
      </trkpt>
      <trkpt lat="44.13752" lon="5.01725">
        <ele>259.4</ele>
        <time>2022-01-16T13:26:35Z</time>
      </trkpt>
      <trkpt lat="44.13763" lon="5.01714">
        <ele>256.9</ele>
        <time>2022-01-16T13:26:50Z</time>
      </trkpt>
      <trkpt lat="44.13774" lon="5.01705">
        <ele>255.4</ele>
        <time>2022-01-16T13:27:04Z</time>
      </trkpt>
      <trkpt lat="44.13787" lon="5.01698">
        <ele>252.3</ele>
        <time>2022-01-16T13:27:18Z</time>
      </trkpt>
      <trkpt lat="44.13797" lon="5.01697">
        <ele>250.8</ele>
        <time>2022-01-16T13:27:29Z</time>
      </trkpt>
      <trkpt lat="44.13799" lon="5.017">
        <ele>251.6</ele>
        <time>2022-01-16T13:27:31Z</time>
      </trkpt>
      <trkpt lat="44.138" lon="5.01701">
        <ele>251.8</ele>
        <time>2022-01-16T13:27:32Z</time>
      </trkpt>
      <trkpt lat="44.13801" lon="5.01701">
        <ele>251.7</ele>
        <time>2022-01-16T13:27:33Z</time>
      </trkpt>
      <trkpt lat="44.13802" lon="5.01702">
        <ele>251.9</ele>
        <time>2022-01-16T13:27:34Z</time>
      </trkpt>
      <trkpt lat="44.13803" lon="5.01704">
        <ele>252.4</ele>
        <time>2022-01-16T13:27:35Z</time>
      </trkpt>
      <trkpt lat="44.13804" lon="5.01705">
        <ele>252.6</ele>
        <time>2022-01-16T13:27:36Z</time>
      </trkpt>
      <trkpt lat="44.13807" lon="5.01706">
        <ele>252.6</ele>
        <time>2022-01-16T13:27:40Z</time>
      </trkpt>
      <trkpt lat="44.13808" lon="5.01705">
        <ele>252.1</ele>
        <time>2022-01-16T13:27:41Z</time>
      </trkpt>
      <trkpt lat="44.13809" lon="5.01706">
        <ele>252.3</ele>
        <time>2022-01-16T13:27:42Z</time>
      </trkpt>
      <trkpt lat="44.13811" lon="5.01709">
        <ele>253</ele>
        <time>2022-01-16T13:27:46Z</time>
      </trkpt>
      <trkpt lat="44.13823" lon="5.0172">
        <ele>254.8</ele>
        <time>2022-01-16T13:27:56Z</time>
      </trkpt>
      <trkpt lat="44.13828" lon="5.01721">
        <ele>254.4</ele>
        <time>2022-01-16T13:28:01Z</time>
      </trkpt>
      <trkpt lat="44.13829" lon="5.0172">
        <ele>254</ele>
        <time>2022-01-16T13:28:02Z</time>
      </trkpt>
      <trkpt lat="44.13831" lon="5.0172">
        <ele>253.7</ele>
        <time>2022-01-16T13:28:03Z</time>
      </trkpt>
      <trkpt lat="44.13832" lon="5.01719">
        <ele>253.3</ele>
        <time>2022-01-16T13:28:04Z</time>
      </trkpt>
      <trkpt lat="44.13833" lon="5.01717">
        <ele>252.5</ele>
        <time>2022-01-16T13:28:05Z</time>
      </trkpt>
      <trkpt lat="44.13836" lon="5.01716">
        <ele>252.7</ele>
        <time>2022-01-16T13:28:07Z</time>
      </trkpt>
      <trkpt lat="44.1384" lon="5.01714">
        <ele>252.8</ele>
        <time>2022-01-16T13:28:10Z</time>
      </trkpt>
      <trkpt lat="44.13848" lon="5.01705">
        <ele>251.4</ele>
        <time>2022-01-16T13:28:21Z</time>
      </trkpt>
      <trkpt lat="44.13861" lon="5.01691">
        <ele>248.9</ele>
        <time>2022-01-16T13:28:34Z</time>
      </trkpt>
      <trkpt lat="44.13867" lon="5.01686">
        <ele>248.3</ele>
        <time>2022-01-16T13:28:42Z</time>
      </trkpt>
      <trkpt lat="44.13868" lon="5.01685">
        <ele>248.1</ele>
        <time>2022-01-16T13:28:43Z</time>
      </trkpt>
      <trkpt lat="44.13869" lon="5.01684">
        <ele>247.9</ele>
        <time>2022-01-16T13:28:44Z</time>
      </trkpt>
      <trkpt lat="44.1387" lon="5.01684">
        <ele>248.1</ele>
        <time>2022-01-16T13:28:45Z</time>
      </trkpt>
      <trkpt lat="44.13871" lon="5.01683">
        <ele>247.9</ele>
        <time>2022-01-16T13:28:46Z</time>
      </trkpt>
      <trkpt lat="44.13872" lon="5.01681">
        <ele>247.4</ele>
        <time>2022-01-16T13:28:47Z</time>
      </trkpt>
      <trkpt lat="44.13872" lon="5.0168">
        <ele>247.1</ele>
        <time>2022-01-16T13:28:48Z</time>
      </trkpt>
      <trkpt lat="44.13873" lon="5.01679">
        <ele>246.9</ele>
        <time>2022-01-16T13:28:49Z</time>
      </trkpt>
      <trkpt lat="44.13885" lon="5.01666">
        <ele>244.2</ele>
        <time>2022-01-16T13:29:00Z</time>
      </trkpt>
      <trkpt lat="44.13889" lon="5.01663">
        <ele>243.8</ele>
        <time>2022-01-16T13:29:07Z</time>
      </trkpt>
      <trkpt lat="44.13889" lon="5.01662">
        <ele>243.5</ele>
        <time>2022-01-16T13:29:08Z</time>
      </trkpt>
      <trkpt lat="44.1389" lon="5.01661">
        <ele>243.2</ele>
        <time>2022-01-16T13:29:09Z</time>
      </trkpt>
      <trkpt lat="44.13898" lon="5.01661">
        <ele>243.8</ele>
        <time>2022-01-16T13:29:20Z</time>
      </trkpt>
      <trkpt lat="44.13902" lon="5.0166">
        <ele>243.8</ele>
        <time>2022-01-16T13:29:23Z</time>
      </trkpt>
      <trkpt lat="44.13904" lon="5.0166">
        <ele>243.9</ele>
        <time>2022-01-16T13:29:24Z</time>
      </trkpt>
      <trkpt lat="44.13906" lon="5.0166">
        <ele>244.1</ele>
        <time>2022-01-16T13:29:25Z</time>
      </trkpt>
      <trkpt lat="44.13907" lon="5.0166">
        <ele>244.1</ele>
        <time>2022-01-16T13:29:26Z</time>
      </trkpt>
      <trkpt lat="44.13908" lon="5.01659">
        <ele>243.9</ele>
        <time>2022-01-16T13:29:27Z</time>
      </trkpt>
      <trkpt lat="44.13909" lon="5.01659">
        <ele>244</ele>
        <time>2022-01-16T13:29:28Z</time>
      </trkpt>
      <trkpt lat="44.1391" lon="5.01659">
        <ele>244</ele>
        <time>2022-01-16T13:29:29Z</time>
      </trkpt>
      <trkpt lat="44.13918" lon="5.01657">
        <ele>243.9</ele>
        <time>2022-01-16T13:29:37Z</time>
      </trkpt>
      <trkpt lat="44.13926" lon="5.01651">
        <ele>242.2</ele>
        <time>2022-01-16T13:29:49Z</time>
      </trkpt>
      <trkpt lat="44.13928" lon="5.01651">
        <ele>242.2</ele>
        <time>2022-01-16T13:29:52Z</time>
      </trkpt>
      <trkpt lat="44.13929" lon="5.01651">
        <ele>242.2</ele>
        <time>2022-01-16T13:29:53Z</time>
      </trkpt>
      <trkpt lat="44.1393" lon="5.01651">
        <ele>242.3</ele>
        <time>2022-01-16T13:29:54Z</time>
      </trkpt>
      <trkpt lat="44.13932" lon="5.01653">
        <ele>242.8</ele>
        <time>2022-01-16T13:29:56Z</time>
      </trkpt>
      <trkpt lat="44.13937" lon="5.01651">
        <ele>242.4</ele>
        <time>2022-01-16T13:30:05Z</time>
      </trkpt>
      <trkpt lat="44.13949" lon="5.01645">
        <ele>241.6</ele>
        <time>2022-01-16T13:30:22Z</time>
      </trkpt>
      <trkpt lat="44.13965" lon="5.01632">
        <ele>239</ele>
        <time>2022-01-16T13:30:42Z</time>
      </trkpt>
      <trkpt lat="44.13988" lon="5.01619">
        <ele>238.7</ele>
        <time>2022-01-16T13:30:58Z</time>
      </trkpt>
      <trkpt lat="44.14006" lon="5.01611">
        <ele>239.2</ele>
        <time>2022-01-16T13:31:15Z</time>
      </trkpt>
      <trkpt lat="44.14023" lon="5.01605">
        <ele>238.7</ele>
        <time>2022-01-16T13:31:29Z</time>
      </trkpt>
      <trkpt lat="44.14031" lon="5.01594">
        <ele>237</ele>
        <time>2022-01-16T13:31:43Z</time>
      </trkpt>
      <trkpt lat="44.14032" lon="5.01593">
        <ele>236.9</ele>
        <time>2022-01-16T13:31:44Z</time>
      </trkpt>
      <trkpt lat="44.14034" lon="5.01592">
        <ele>236.8</ele>
        <time>2022-01-16T13:31:46Z</time>
      </trkpt>
      <trkpt lat="44.14035" lon="5.01592">
        <ele>236.8</ele>
        <time>2022-01-16T13:31:47Z</time>
      </trkpt>
      <trkpt lat="44.14036" lon="5.01591">
        <ele>236.7</ele>
        <time>2022-01-16T13:31:48Z</time>
      </trkpt>
      <trkpt lat="44.14047" lon="5.01587">
        <ele>236.4</ele>
        <time>2022-01-16T13:32:01Z</time>
      </trkpt>
      <trkpt lat="44.14047" lon="5.01587">
        <ele>236.4</ele>
        <time>2022-01-16T13:32:02Z</time>
      </trkpt>
      <trkpt lat="44.14049" lon="5.01586">
        <ele>236.2</ele>
        <time>2022-01-16T13:32:05Z</time>
      </trkpt>
      <trkpt lat="44.1405" lon="5.01586">
        <ele>236.3</ele>
        <time>2022-01-16T13:32:06Z</time>
      </trkpt>
      <trkpt lat="44.14056" lon="5.01586">
        <ele>236.5</ele>
        <time>2022-01-16T13:32:16Z</time>
      </trkpt>
      <trkpt lat="44.14066" lon="5.01585">
        <ele>236.7</ele>
        <time>2022-01-16T13:32:29Z</time>
      </trkpt>
      <trkpt lat="44.14081" lon="5.01573">
        <ele>235.7</ele>
        <time>2022-01-16T13:32:47Z</time>
      </trkpt>
      <trkpt lat="44.14089" lon="5.01558">
        <ele>234.7</ele>
        <time>2022-01-16T13:32:57Z</time>
      </trkpt>
      <trkpt lat="44.14092" lon="5.01538">
        <ele>236</ele>
        <time>2022-01-16T13:33:10Z</time>
      </trkpt>
      <trkpt lat="44.14094" lon="5.01524">
        <ele>237.2</ele>
        <time>2022-01-16T13:33:24Z</time>
      </trkpt>
      <trkpt lat="44.14101" lon="5.01505">
        <ele>238.3</ele>
        <time>2022-01-16T13:33:42Z</time>
      </trkpt>
      <trkpt lat="44.14109" lon="5.01496">
        <ele>240.4</ele>
        <time>2022-01-16T13:33:59Z</time>
      </trkpt>
      <trkpt lat="44.14122" lon="5.01485">
        <ele>243.4</ele>
        <time>2022-01-16T13:34:32Z</time>
      </trkpt>
      <trkpt lat="44.14129" lon="5.01464">
        <ele>242.2</ele>
        <time>2022-01-16T13:34:48Z</time>
      </trkpt>
      <trkpt lat="44.14128" lon="5.01455">
        <ele>241.2</ele>
        <time>2022-01-16T13:34:51Z</time>
      </trkpt>
      <trkpt lat="44.14127" lon="5.01451">
        <ele>241</ele>
        <time>2022-01-16T13:34:52Z</time>
      </trkpt>
      <trkpt lat="44.1411" lon="5.01452">
        <ele>242</ele>
        <time>2022-01-16T13:35:05Z</time>
      </trkpt>
      <trkpt lat="44.14091" lon="5.01468">
        <ele>239.2</ele>
        <time>2022-01-16T13:35:22Z</time>
      </trkpt>
      <trkpt lat="44.1407" lon="5.01483">
        <ele>239</ele>
        <time>2022-01-16T13:35:39Z</time>
      </trkpt>
      <trkpt lat="44.14058" lon="5.01492">
        <ele>240.7</ele>
        <time>2022-01-16T13:35:50Z</time>
      </trkpt>
      <trkpt lat="44.14044" lon="5.01498">
        <ele>242.1</ele>
        <time>2022-01-16T13:36:03Z</time>
      </trkpt>
      <trkpt lat="44.14027" lon="5.01512">
        <ele>236.3</ele>
        <time>2022-01-16T13:36:19Z</time>
      </trkpt>
      <trkpt lat="44.1401" lon="5.01524">
        <ele>233.5</ele>
        <time>2022-01-16T13:36:32Z</time>
      </trkpt>
      <trkpt lat="44.14004" lon="5.01528">
        <ele>233.6</ele>
        <time>2022-01-16T13:36:39Z</time>
      </trkpt>
      <trkpt lat="44.14003" lon="5.01528">
        <ele>234</ele>
        <time>2022-01-16T13:36:40Z</time>
      </trkpt>
      <trkpt lat="44.14002" lon="5.01527">
        <ele>234.6</ele>
        <time>2022-01-16T13:36:41Z</time>
      </trkpt>
      <trkpt lat="44.14002" lon="5.01527">
        <ele>234.6</ele>
        <time>2022-01-16T13:36:42Z</time>
      </trkpt>
      <trkpt lat="44.14001" lon="5.01527">
        <ele>235</ele>
        <time>2022-01-16T13:36:43Z</time>
      </trkpt>
      <trkpt lat="44.1399" lon="5.01532">
        <ele>235</ele>
        <time>2022-01-16T13:36:54Z</time>
      </trkpt>
      <trkpt lat="44.13976" lon="5.01536">
        <ele>234.6</ele>
        <time>2022-01-16T13:37:08Z</time>
      </trkpt>
      <trkpt lat="44.13962" lon="5.01547">
        <ele>227.3</ele>
        <time>2022-01-16T13:37:21Z</time>
      </trkpt>
      <trkpt lat="44.13952" lon="5.01554">
        <ele>222.8</ele>
        <time>2022-01-16T13:37:31Z</time>
      </trkpt>
      <trkpt lat="44.13952" lon="5.01555">
        <ele>222.1</ele>
        <time>2022-01-16T13:37:32Z</time>
      </trkpt>
      <trkpt lat="44.1395" lon="5.01554">
        <ele>222.8</ele>
        <time>2022-01-16T13:37:43Z</time>
      </trkpt>
      <trkpt lat="44.13952" lon="5.01556">
        <ele>221.9</ele>
        <time>2022-01-16T13:37:58Z</time>
      </trkpt>
      <trkpt lat="44.13945" lon="5.01553">
        <ele>223.6</ele>
        <time>2022-01-16T13:38:14Z</time>
      </trkpt>
      <trkpt lat="44.1394" lon="5.01553">
        <ele>223.5</ele>
        <time>2022-01-16T13:38:20Z</time>
      </trkpt>
      <trkpt lat="44.13939" lon="5.01552">
        <ele>224</ele>
        <time>2022-01-16T13:38:21Z</time>
      </trkpt>
      <trkpt lat="44.13926" lon="5.01552">
        <ele>223.4</ele>
        <time>2022-01-16T13:38:35Z</time>
      </trkpt>
      <trkpt lat="44.13915" lon="5.01545">
        <ele>226.7</ele>
        <time>2022-01-16T13:38:52Z</time>
      </trkpt>
      <trkpt lat="44.13911" lon="5.01538">
        <ele>230.1</ele>
        <time>2022-01-16T13:39:03Z</time>
      </trkpt>
      <trkpt lat="44.13913" lon="5.0153">
        <ele>234.2</ele>
        <time>2022-01-16T13:39:11Z</time>
      </trkpt>
      <trkpt lat="44.13914" lon="5.01527">
        <ele>235.8</ele>
        <time>2022-01-16T13:39:14Z</time>
      </trkpt>
      <trkpt lat="44.1392" lon="5.01517">
        <ele>240</ele>
        <time>2022-01-16T13:39:39Z</time>
      </trkpt>
      <trkpt lat="44.13916" lon="5.01512">
        <ele>241</ele>
        <time>2022-01-16T13:40:07Z</time>
      </trkpt>
      <trkpt lat="44.13914" lon="5.01521">
        <ele>237.7</ele>
        <time>2022-01-16T13:40:25Z</time>
      </trkpt>
      <trkpt lat="44.13909" lon="5.01537">
        <ele>230.5</ele>
        <time>2022-01-16T13:40:43Z</time>
      </trkpt>
      <trkpt lat="44.13898" lon="5.01536">
        <ele>230</ele>
        <time>2022-01-16T13:40:59Z</time>
      </trkpt>
      <trkpt lat="44.13882" lon="5.01512">
        <ele>234.4</ele>
        <time>2022-01-16T13:41:20Z</time>
      </trkpt>
      <trkpt lat="44.13881" lon="5.01512">
        <ele>234.4</ele>
        <time>2022-01-16T13:41:36Z</time>
      </trkpt>
      <trkpt lat="44.13881" lon="5.01527">
        <ele>230.9</ele>
        <time>2022-01-16T13:42:20Z</time>
      </trkpt>
      <trkpt lat="44.13882" lon="5.01521">
        <ele>232.3</ele>
        <time>2022-01-16T13:43:26Z</time>
      </trkpt>
      <trkpt lat="44.13888" lon="5.01535">
        <ele>229.4</ele>
        <time>2022-01-16T13:43:41Z</time>
      </trkpt>
      <trkpt lat="44.13853" lon="5.01614">
        <ele>218.8</ele>
        <time>2022-01-16T13:44:01Z</time>
      </trkpt>
      <trkpt lat="44.1385" lon="5.01623">
        <ele>222.3</ele>
        <time>2022-01-16T13:44:04Z</time>
      </trkpt>
      <trkpt lat="44.13819" lon="5.01695">
        <ele>247.7</ele>
        <time>2022-01-16T13:44:31Z</time>
      </trkpt>
      <trkpt lat="44.13872" lon="5.01546">
        <ele>227.7</ele>
        <time>2022-01-16T13:46:44Z</time>
      </trkpt>
      <trkpt lat="44.13874" lon="5.01542">
        <ele>228.2</ele>
        <time>2022-01-16T13:46:45Z</time>
      </trkpt>
      <trkpt lat="44.13873" lon="5.01534">
        <ele>229.5</ele>
        <time>2022-01-16T13:46:46Z</time>
      </trkpt>
      <trkpt lat="44.13875" lon="5.01532">
        <ele>229.8</ele>
        <time>2022-01-16T13:46:47Z</time>
      </trkpt>
      <trkpt lat="44.13875" lon="5.0153">
        <ele>230.1</ele>
        <time>2022-01-16T13:46:48Z</time>
      </trkpt>
      <trkpt lat="44.13889" lon="5.01511">
        <ele>235.3</ele>
        <time>2022-01-16T13:47:03Z</time>
      </trkpt>
      <trkpt lat="44.13887" lon="5.01515">
        <ele>234.1</ele>
        <time>2022-01-16T13:47:15Z</time>
      </trkpt>
      <trkpt lat="44.13884" lon="5.01511">
        <ele>234.8</ele>
        <time>2022-01-16T13:47:25Z</time>
      </trkpt>
      <trkpt lat="44.13875" lon="5.01513">
        <ele>233.7</ele>
        <time>2022-01-16T13:47:39Z</time>
      </trkpt>
      <trkpt lat="44.13867" lon="5.01514">
        <ele>232.9</ele>
        <time>2022-01-16T13:47:48Z</time>
      </trkpt>
      <trkpt lat="44.13866" lon="5.01515">
        <ele>232.6</ele>
        <time>2022-01-16T13:47:49Z</time>
      </trkpt>
      <trkpt lat="44.13863" lon="5.01516">
        <ele>232.2</ele>
        <time>2022-01-16T13:47:51Z</time>
      </trkpt>
      <trkpt lat="44.13862" lon="5.01516">
        <ele>232.2</ele>
        <time>2022-01-16T13:47:53Z</time>
      </trkpt>
      <trkpt lat="44.1386" lon="5.01516">
        <ele>232</ele>
        <time>2022-01-16T13:47:54Z</time>
      </trkpt>
      <trkpt lat="44.13859" lon="5.01517">
        <ele>231.8</ele>
        <time>2022-01-16T13:47:55Z</time>
      </trkpt>
      <trkpt lat="44.1385" lon="5.01519">
        <ele>230.7</ele>
        <time>2022-01-16T13:48:03Z</time>
      </trkpt>
      <trkpt lat="44.13849" lon="5.01519">
        <ele>230.6</ele>
        <time>2022-01-16T13:48:04Z</time>
      </trkpt>
      <trkpt lat="44.13848" lon="5.01519">
        <ele>230.5</ele>
        <time>2022-01-16T13:48:05Z</time>
      </trkpt>
      <trkpt lat="44.13847" lon="5.01519">
        <ele>230.4</ele>
        <time>2022-01-16T13:48:06Z</time>
      </trkpt>
      <trkpt lat="44.13846" lon="5.01519">
        <ele>230.3</ele>
        <time>2022-01-16T13:48:07Z</time>
      </trkpt>
      <trkpt lat="44.13845" lon="5.01517">
        <ele>230.6</ele>
        <time>2022-01-16T13:48:10Z</time>
      </trkpt>
      <trkpt lat="44.1384" lon="5.01519">
        <ele>229.8</ele>
        <time>2022-01-16T13:48:18Z</time>
      </trkpt>
      <trkpt lat="44.13839" lon="5.0152">
        <ele>229.6</ele>
        <time>2022-01-16T13:48:19Z</time>
      </trkpt>
      <trkpt lat="44.1383" lon="5.01523">
        <ele>228.4</ele>
        <time>2022-01-16T13:48:29Z</time>
      </trkpt>
      <trkpt lat="44.13814" lon="5.01522">
        <ele>227</ele>
        <time>2022-01-16T13:48:43Z</time>
      </trkpt>
      <trkpt lat="44.13803" lon="5.01529">
        <ele>224.5</ele>
        <time>2022-01-16T13:48:56Z</time>
      </trkpt>
      <trkpt lat="44.138" lon="5.01531">
        <ele>223.9</ele>
        <time>2022-01-16T13:49:00Z</time>
      </trkpt>
      <trkpt lat="44.13799" lon="5.01532">
        <ele>223.6</ele>
        <time>2022-01-16T13:49:01Z</time>
      </trkpt>
      <trkpt lat="44.13798" lon="5.01532">
        <ele>223.5</ele>
        <time>2022-01-16T13:49:02Z</time>
      </trkpt>
      <trkpt lat="44.13797" lon="5.01533">
        <ele>223.2</ele>
        <time>2022-01-16T13:49:03Z</time>
      </trkpt>
      <trkpt lat="44.13796" lon="5.01533">
        <ele>223.1</ele>
        <time>2022-01-16T13:49:04Z</time>
      </trkpt>
      <trkpt lat="44.13795" lon="5.01533">
        <ele>222.9</ele>
        <time>2022-01-16T13:49:05Z</time>
      </trkpt>
      <trkpt lat="44.13794" lon="5.01531">
        <ele>223</ele>
        <time>2022-01-16T13:49:06Z</time>
      </trkpt>
      <trkpt lat="44.13781" lon="5.01534">
        <ele>220.4</ele>
        <time>2022-01-16T13:49:21Z</time>
      </trkpt>
      <trkpt lat="44.13768" lon="5.01537">
        <ele>218.3</ele>
        <time>2022-01-16T13:49:35Z</time>
      </trkpt>
      <trkpt lat="44.13756" lon="5.01541">
        <ele>215.6</ele>
        <time>2022-01-16T13:49:47Z</time>
      </trkpt>
      <trkpt lat="44.13739" lon="5.01548">
        <ele>213</ele>
        <time>2022-01-16T13:50:02Z</time>
      </trkpt>
      <trkpt lat="44.13733" lon="5.0155">
        <ele>213</ele>
        <time>2022-01-16T13:50:07Z</time>
      </trkpt>
      <trkpt lat="44.13718" lon="5.01563">
        <ele>208</ele>
        <time>2022-01-16T13:50:21Z</time>
      </trkpt>
      <trkpt lat="44.13705" lon="5.01564">
        <ele>204.4</ele>
        <time>2022-01-16T13:50:34Z</time>
      </trkpt>
      <trkpt lat="44.13698" lon="5.01553">
        <ele>207.1</ele>
        <time>2022-01-16T13:50:44Z</time>
      </trkpt>
      <trkpt lat="44.13697" lon="5.01551">
        <ele>207.6</ele>
        <time>2022-01-16T13:50:45Z</time>
      </trkpt>
      <trkpt lat="44.13696" lon="5.01549">
        <ele>208.2</ele>
        <time>2022-01-16T13:50:46Z</time>
      </trkpt>
      <trkpt lat="44.13696" lon="5.0155">
        <ele>207.8</ele>
        <time>2022-01-16T13:50:47Z</time>
      </trkpt>
      <trkpt lat="44.13695" lon="5.0155">
        <ele>207.5</ele>
        <time>2022-01-16T13:50:48Z</time>
      </trkpt>
      <trkpt lat="44.13687" lon="5.01546">
        <ele>208.1</ele>
        <time>2022-01-16T13:50:57Z</time>
      </trkpt>
      <trkpt lat="44.13686" lon="5.01545">
        <ele>208.5</ele>
        <time>2022-01-16T13:50:58Z</time>
      </trkpt>
      <trkpt lat="44.13685" lon="5.01545">
        <ele>208.3</ele>
        <time>2022-01-16T13:50:59Z</time>
      </trkpt>
      <trkpt lat="44.1368" lon="5.01542">
        <ele>209</ele>
        <time>2022-01-16T13:51:05Z</time>
      </trkpt>
      <trkpt lat="44.13672" lon="5.01534">
        <ele>211.7</ele>
        <time>2022-01-16T13:51:12Z</time>
      </trkpt>
      <trkpt lat="44.13671" lon="5.01533">
        <ele>212.1</ele>
        <time>2022-01-16T13:51:13Z</time>
      </trkpt>
      <trkpt lat="44.13659" lon="5.01529">
        <ele>212.3</ele>
        <time>2022-01-16T13:51:26Z</time>
      </trkpt>
      <trkpt lat="44.13655" lon="5.01526">
        <ele>212.4</ele>
        <time>2022-01-16T13:51:32Z</time>
      </trkpt>
      <trkpt lat="44.1365" lon="5.01507">
        <ele>212.3</ele>
        <time>2022-01-16T13:51:47Z</time>
      </trkpt>
      <trkpt lat="44.13654" lon="5.01492">
        <ele>214.9</ele>
        <time>2022-01-16T13:51:59Z</time>
      </trkpt>
      <trkpt lat="44.13655" lon="5.0149">
        <ele>215.5</ele>
        <time>2022-01-16T13:52:00Z</time>
      </trkpt>
      <trkpt lat="44.13649" lon="5.01477">
        <ele>215.3</ele>
        <time>2022-01-16T13:52:13Z</time>
      </trkpt>
      <trkpt lat="44.13628" lon="5.01478">
        <ele>212.5</ele>
        <time>2022-01-16T13:52:30Z</time>
      </trkpt>
      <trkpt lat="44.13604" lon="5.0148">
        <ele>211.9</ele>
        <time>2022-01-16T13:52:52Z</time>
      </trkpt>
      <trkpt lat="44.13583" lon="5.01482">
        <ele>210.4</ele>
        <time>2022-01-16T13:53:15Z</time>
      </trkpt>
      <trkpt lat="44.13568" lon="5.01479">
        <ele>208.9</ele>
        <time>2022-01-16T13:53:35Z</time>
      </trkpt>
      <trkpt lat="44.13557" lon="5.01462">
        <ele>209.5</ele>
        <time>2022-01-16T13:53:49Z</time>
      </trkpt>
      <trkpt lat="44.13551" lon="5.0145">
        <ele>208.8</ele>
        <time>2022-01-16T13:54:02Z</time>
      </trkpt>
      <trkpt lat="44.1354" lon="5.01434">
        <ele>207.1</ele>
        <time>2022-01-16T13:54:18Z</time>
      </trkpt>
      <trkpt lat="44.13529" lon="5.01415">
        <ele>204.4</ele>
        <time>2022-01-16T13:54:34Z</time>
      </trkpt>
      <trkpt lat="44.13523" lon="5.01405">
        <ele>203.4</ele>
        <time>2022-01-16T13:54:48Z</time>
      </trkpt>
      <trkpt lat="44.13518" lon="5.01395">
        <ele>203.3</ele>
        <time>2022-01-16T13:55:00Z</time>
      </trkpt>
      <trkpt lat="44.13514" lon="5.01388">
        <ele>203.5</ele>
        <time>2022-01-16T13:55:15Z</time>
      </trkpt>
      <trkpt lat="44.13516" lon="5.01385">
        <ele>203.5</ele>
        <time>2022-01-16T13:55:31Z</time>
      </trkpt>
      <trkpt lat="44.13512" lon="5.01382">
        <ele>202.9</ele>
        <time>2022-01-16T13:55:45Z</time>
      </trkpt>
      <trkpt lat="44.13509" lon="5.01377">
        <ele>202.3</ele>
        <time>2022-01-16T13:56:03Z</time>
      </trkpt>
      <trkpt lat="44.13507" lon="5.01369">
        <ele>201.5</ele>
        <time>2022-01-16T13:56:34Z</time>
      </trkpt>
      <trkpt lat="44.13507" lon="5.01367">
        <ele>201.4</ele>
        <time>2022-01-16T13:56:36Z</time>
      </trkpt>
      <trkpt lat="44.13508" lon="5.01365">
        <ele>201.4</ele>
        <time>2022-01-16T13:56:38Z</time>
      </trkpt>
      <trkpt lat="44.13505" lon="5.01354">
        <ele>200</ele>
        <time>2022-01-16T13:56:49Z</time>
      </trkpt>
      <trkpt lat="44.13505" lon="5.01337">
        <ele>198.1</ele>
        <time>2022-01-16T13:57:03Z</time>
      </trkpt>
      <trkpt lat="44.13507" lon="5.01324">
        <ele>197.3</ele>
        <time>2022-01-16T13:57:13Z</time>
      </trkpt>
      <trkpt lat="44.1351" lon="5.01307">
        <ele>196.2</ele>
        <time>2022-01-16T13:57:25Z</time>
      </trkpt>
      <trkpt lat="44.13513" lon="5.01296">
        <ele>195.6</ele>
        <time>2022-01-16T13:57:33Z</time>
      </trkpt>
      <trkpt lat="44.13514" lon="5.01295">
        <ele>195.6</ele>
        <time>2022-01-16T13:57:34Z</time>
      </trkpt>
      <trkpt lat="44.13515" lon="5.01294">
        <ele>195.6</ele>
        <time>2022-01-16T13:57:35Z</time>
      </trkpt>
      <trkpt lat="44.13515" lon="5.01292">
        <ele>195.4</ele>
        <time>2022-01-16T13:57:36Z</time>
      </trkpt>
      <trkpt lat="44.13515" lon="5.01291">
        <ele>195.3</ele>
        <time>2022-01-16T13:57:37Z</time>
      </trkpt>
      <trkpt lat="44.13518" lon="5.01268">
        <ele>193.1</ele>
        <time>2022-01-16T13:57:52Z</time>
      </trkpt>
      <trkpt lat="44.1352" lon="5.01241">
        <ele>190.6</ele>
        <time>2022-01-16T13:58:09Z</time>
      </trkpt>
      <trkpt lat="44.13523" lon="5.01218">
        <ele>189.7</ele>
        <time>2022-01-16T13:58:25Z</time>
      </trkpt>
      <trkpt lat="44.13525" lon="5.01188">
        <ele>188.3</ele>
        <time>2022-01-16T13:58:45Z</time>
      </trkpt>
      <trkpt lat="44.13528" lon="5.01163">
        <ele>186</ele>
        <time>2022-01-16T13:59:01Z</time>
      </trkpt>
      <trkpt lat="44.13528" lon="5.01154">
        <ele>186</ele>
        <time>2022-01-16T13:59:12Z</time>
      </trkpt>
      <trkpt lat="44.13528" lon="5.01153">
        <ele>186</ele>
        <time>2022-01-16T13:59:14Z</time>
      </trkpt>
      <trkpt lat="44.13528" lon="5.01151">
        <ele>186</ele>
        <time>2022-01-16T13:59:15Z</time>
      </trkpt>
      <trkpt lat="44.13528" lon="5.01149">
        <ele>186</ele>
        <time>2022-01-16T13:59:16Z</time>
      </trkpt>
      <trkpt lat="44.13527" lon="5.01148">
        <ele>186</ele>
        <time>2022-01-16T13:59:17Z</time>
      </trkpt>
      <trkpt lat="44.13527" lon="5.01146">
        <ele>186</ele>
        <time>2022-01-16T13:59:18Z</time>
      </trkpt>
      <trkpt lat="44.13527" lon="5.01145">
        <ele>186</ele>
        <time>2022-01-16T13:59:19Z</time>
      </trkpt>
      <trkpt lat="44.13528" lon="5.01122">
        <ele>185.4</ele>
        <time>2022-01-16T13:59:36Z</time>
      </trkpt>
      <trkpt lat="44.13529" lon="5.01119">
        <ele>185.4</ele>
        <time>2022-01-16T13:59:38Z</time>
      </trkpt>
      <trkpt lat="44.13529" lon="5.01117">
        <ele>185.3</ele>
        <time>2022-01-16T13:59:39Z</time>
      </trkpt>
      <trkpt lat="44.13529" lon="5.01115">
        <ele>185.2</ele>
        <time>2022-01-16T13:59:40Z</time>
      </trkpt>
      <trkpt lat="44.1353" lon="5.01114">
        <ele>185.3</ele>
        <time>2022-01-16T13:59:41Z</time>
      </trkpt>
      <trkpt lat="44.1353" lon="5.01112">
        <ele>185.2</ele>
        <time>2022-01-16T13:59:42Z</time>
      </trkpt>
      <trkpt lat="44.13535" lon="5.01086">
        <ele>184.6</ele>
        <time>2022-01-16T14:00:00Z</time>
      </trkpt>
      <trkpt lat="44.13536" lon="5.01082">
        <ele>184.6</ele>
        <time>2022-01-16T14:00:03Z</time>
      </trkpt>
      <trkpt lat="44.13537" lon="5.0108">
        <ele>184.6</ele>
        <time>2022-01-16T14:00:04Z</time>
      </trkpt>
      <trkpt lat="44.13537" lon="5.01079">
        <ele>184.6</ele>
        <time>2022-01-16T14:00:05Z</time>
      </trkpt>
      <trkpt lat="44.13537" lon="5.01077">
        <ele>184.5</ele>
        <time>2022-01-16T14:00:06Z</time>
      </trkpt>
      <trkpt lat="44.13538" lon="5.01076">
        <ele>184.5</ele>
        <time>2022-01-16T14:00:07Z</time>
      </trkpt>
      <trkpt lat="44.13539" lon="5.01074">
        <ele>184.5</ele>
        <time>2022-01-16T14:00:08Z</time>
      </trkpt>
      <trkpt lat="44.13539" lon="5.01073">
        <ele>184.5</ele>
        <time>2022-01-16T14:00:09Z</time>
      </trkpt>
      <trkpt lat="44.1354" lon="5.01072">
        <ele>184.5</ele>
        <time>2022-01-16T14:00:10Z</time>
      </trkpt>
      <trkpt lat="44.13541" lon="5.0107">
        <ele>184.5</ele>
        <time>2022-01-16T14:00:11Z</time>
      </trkpt>
      <trkpt lat="44.13541" lon="5.01068">
        <ele>184.4</ele>
        <time>2022-01-16T14:00:12Z</time>
      </trkpt>
      <trkpt lat="44.13541" lon="5.01067">
        <ele>184.4</ele>
        <time>2022-01-16T14:00:13Z</time>
      </trkpt>
      <trkpt lat="44.13542" lon="5.01066">
        <ele>184.4</ele>
        <time>2022-01-16T14:00:14Z</time>
      </trkpt>
      <trkpt lat="44.13542" lon="5.01064">
        <ele>184.3</ele>
        <time>2022-01-16T14:00:15Z</time>
      </trkpt>
      <trkpt lat="44.13542" lon="5.01063">
        <ele>184.3</ele>
        <time>2022-01-16T14:00:16Z</time>
      </trkpt>
      <trkpt lat="44.13546" lon="5.01044">
        <ele>183</ele>
        <time>2022-01-16T14:00:28Z</time>
      </trkpt>
      <trkpt lat="44.13547" lon="5.01042">
        <ele>182.8</ele>
        <time>2022-01-16T14:00:29Z</time>
      </trkpt>
      <trkpt lat="44.13547" lon="5.0104">
        <ele>182.7</ele>
        <time>2022-01-16T14:00:30Z</time>
      </trkpt>
      <trkpt lat="44.13548" lon="5.01039">
        <ele>182.5</ele>
        <time>2022-01-16T14:00:31Z</time>
      </trkpt>
      <trkpt lat="44.13548" lon="5.01037">
        <ele>182.4</ele>
        <time>2022-01-16T14:00:32Z</time>
      </trkpt>
      <trkpt lat="44.13549" lon="5.01036">
        <ele>182.2</ele>
        <time>2022-01-16T14:00:33Z</time>
      </trkpt>
      <trkpt lat="44.13554" lon="5.01011">
        <ele>181.1</ele>
        <time>2022-01-16T14:00:50Z</time>
      </trkpt>
      <trkpt lat="44.13558" lon="5.00992">
        <ele>180.7</ele>
        <time>2022-01-16T14:01:03Z</time>
      </trkpt>
      <trkpt lat="44.13558" lon="5.00991">
        <ele>180.7</ele>
        <time>2022-01-16T14:01:04Z</time>
      </trkpt>
      <trkpt lat="44.13558" lon="5.0099">
        <ele>180.7</ele>
        <time>2022-01-16T14:01:05Z</time>
      </trkpt>
      <trkpt lat="44.13558" lon="5.00989">
        <ele>180.6</ele>
        <time>2022-01-16T14:01:06Z</time>
      </trkpt>
      <trkpt lat="44.13559" lon="5.00987">
        <ele>180.6</ele>
        <time>2022-01-16T14:01:07Z</time>
      </trkpt>
      <trkpt lat="44.1356" lon="5.00986">
        <ele>180.6</ele>
        <time>2022-01-16T14:01:08Z</time>
      </trkpt>
      <trkpt lat="44.13561" lon="5.00985">
        <ele>180.6</ele>
        <time>2022-01-16T14:01:09Z</time>
      </trkpt>
      <trkpt lat="44.13566" lon="5.00975">
        <ele>180.4</ele>
        <time>2022-01-16T14:01:17Z</time>
      </trkpt>
      <trkpt lat="44.13567" lon="5.00974">
        <ele>180.4</ele>
        <time>2022-01-16T14:01:18Z</time>
      </trkpt>
      <trkpt lat="44.13568" lon="5.00974">
        <ele>180.5</ele>
        <time>2022-01-16T14:01:19Z</time>
      </trkpt>
      <trkpt lat="44.13578" lon="5.00965">
        <ele>180.7</ele>
        <time>2022-01-16T14:01:33Z</time>
      </trkpt>
      <trkpt lat="44.13581" lon="5.00949">
        <ele>180.8</ele>
        <time>2022-01-16T14:01:47Z</time>
      </trkpt>
      <trkpt lat="44.13585" lon="5.00928">
        <ele>180</ele>
        <time>2022-01-16T14:02:04Z</time>
      </trkpt>
      <trkpt lat="44.13585" lon="5.00926">
        <ele>179.8</ele>
        <time>2022-01-16T14:02:05Z</time>
      </trkpt>
      <trkpt lat="44.13591" lon="5.00905">
        <ele>178.6</ele>
        <time>2022-01-16T14:02:21Z</time>
      </trkpt>
      <trkpt lat="44.136" lon="5.00878">
        <ele>179.1</ele>
        <time>2022-01-16T14:02:38Z</time>
      </trkpt>
      <trkpt lat="44.136" lon="5.00863">
        <ele>179</ele>
        <time>2022-01-16T14:02:48Z</time>
      </trkpt>
      <trkpt lat="44.13604" lon="5.00841">
        <ele>180.4</ele>
        <time>2022-01-16T14:03:01Z</time>
      </trkpt>
      <trkpt lat="44.13606" lon="5.00816">
        <ele>181</ele>
        <time>2022-01-16T14:03:16Z</time>
      </trkpt>
      <trkpt lat="44.13607" lon="5.00806">
        <ele>181.1</ele>
        <time>2022-01-16T14:03:23Z</time>
      </trkpt>
      <trkpt lat="44.13614" lon="5.00783">
        <ele>182.3</ele>
        <time>2022-01-16T14:03:38Z</time>
      </trkpt>
      <trkpt lat="44.13615" lon="5.00779">
        <ele>182.4</ele>
        <time>2022-01-16T14:03:41Z</time>
      </trkpt>
      <trkpt lat="44.13617" lon="5.00764">
        <ele>182.2</ele>
        <time>2022-01-16T14:03:51Z</time>
      </trkpt>
      <trkpt lat="44.13618" lon="5.00744">
        <ele>181.8</ele>
        <time>2022-01-16T14:04:06Z</time>
      </trkpt>
      <trkpt lat="44.1362" lon="5.00729">
        <ele>181.5</ele>
        <time>2022-01-16T14:04:21Z</time>
      </trkpt>
      <trkpt lat="44.13618" lon="5.00725">
        <ele>181.1</ele>
        <time>2022-01-16T14:04:36Z</time>
      </trkpt>
      <trkpt lat="44.13616" lon="5.00722">
        <ele>180.7</ele>
        <time>2022-01-16T14:05:15Z</time>
      </trkpt>
      <trkpt lat="44.13613" lon="5.00716">
        <ele>179.8</ele>
        <time>2022-01-16T14:05:39Z</time>
      </trkpt>
      <trkpt lat="44.13613" lon="5.00714">
        <ele>179.6</ele>
        <time>2022-01-16T14:05:59Z</time>
      </trkpt>
      <trkpt lat="44.13615" lon="5.00706">
        <ele>179.1</ele>
        <time>2022-01-16T14:06:08Z</time>
      </trkpt>
      <trkpt lat="44.13615" lon="5.00704">
        <ele>179</ele>
        <time>2022-01-16T14:06:09Z</time>
      </trkpt>
      <trkpt lat="44.13616" lon="5.00702">
        <ele>178.9</ele>
        <time>2022-01-16T14:06:11Z</time>
      </trkpt>
    </trkseg>
  </trk>
</gpx>